<?xml version='1.0' encoding='UTF-8'?>
<gpx version="1.1" creator="https://www.komoot.de" xmlns="http://www.topografix.com/GPX/1/1" xmlns:xsi="http://www.w3.org/2001/XMLSchema-instance" xsi:schemaLocation="http://www.topografix.com/GPX/1/1 http://www.topografix.com/GPX/1/1/gpx.xsd">
  <metadata>
    <name>260902 Groningen Ride: Wassalon Ainda</name>
    <author>
      <link href="https://www.komoot.de">
        <text>komoot</text>
        <type>text/html</type>
      </link>
    </author>
  </metadata>
  <trk>
    <name>260902 Groningen Ride: Wassalon Ainda</name>
    <type>touring_bicycle</type>
    <trkseg>
      <trkpt lat="53.240503" lon="6.537014">
        <ele>2.556921</ele>
        <time>2026-09-02T14:23:04.297Z</time>
      </trkpt>
      <trkpt lat="53.240402" lon="6.537026">
        <ele>2.556921</ele>
        <time>2026-09-02T14:23:29.944Z</time>
      </trkpt>
      <trkpt lat="53.240472" lon="6.537132">
        <ele>2.556921</ele>
        <time>2026-09-02T14:23:34.944Z</time>
      </trkpt>
      <trkpt lat="53.240538" lon="6.537277">
        <ele>2.556921</ele>
        <time>2026-09-02T14:23:39.937Z</time>
      </trkpt>
      <trkpt lat="53.240627" lon="6.537384">
        <ele>2.556921</ele>
        <time>2026-09-02T14:23:43.944Z</time>
      </trkpt>
      <trkpt lat="53.240700" lon="6.537487">
        <ele>2.556921</ele>
        <time>2026-09-02T14:23:46.938Z</time>
      </trkpt>
      <trkpt lat="53.240769" lon="6.537588">
        <ele>2.556921</ele>
        <time>2026-09-02T14:23:49.944Z</time>
      </trkpt>
      <trkpt lat="53.240846" lon="6.537710">
        <ele>2.556921</ele>
        <time>2026-09-02T14:23:53.936Z</time>
      </trkpt>
      <trkpt lat="53.240943" lon="6.537657">
        <ele>2.556921</ele>
        <time>2026-09-02T14:23:56.936Z</time>
      </trkpt>
      <trkpt lat="53.241040" lon="6.537545">
        <ele>2.492976</ele>
        <time>2026-09-02T14:23:59.938Z</time>
      </trkpt>
      <trkpt lat="53.241134" lon="6.537422">
        <ele>2.224268</ele>
        <time>2026-09-02T14:24:02.937Z</time>
      </trkpt>
      <trkpt lat="53.241229" lon="6.537405">
        <ele>2.009235</ele>
        <time>2026-09-02T14:24:08.944Z</time>
      </trkpt>
      <trkpt lat="53.241322" lon="6.537442">
        <ele>1.794074</ele>
        <time>2026-09-02T14:24:12.944Z</time>
      </trkpt>
      <trkpt lat="53.241417" lon="6.537367">
        <ele>1.557601</ele>
        <time>2026-09-02T14:24:15.945Z</time>
      </trkpt>
      <trkpt lat="53.241507" lon="6.537312">
        <ele>1.341923</ele>
        <time>2026-09-02T14:24:18.937Z</time>
      </trkpt>
      <trkpt lat="53.241561" lon="6.537475">
        <ele>1.090986</ele>
        <time>2026-09-02T14:24:21.938Z</time>
      </trkpt>
      <trkpt lat="53.241616" lon="6.537664">
        <ele>0.807925</ele>
        <time>2026-09-02T14:24:24.945Z</time>
      </trkpt>
      <trkpt lat="53.241710" lon="6.537784">
        <ele>0.541691</ele>
        <time>2026-09-02T14:24:27.939Z</time>
      </trkpt>
      <trkpt lat="53.241823" lon="6.537748">
        <ele>0.282788</ele>
        <time>2026-09-02T14:24:30.938Z</time>
      </trkpt>
      <trkpt lat="53.241936" lon="6.537662">
        <ele>0.003330</ele>
        <time>2026-09-02T14:24:33.945Z</time>
      </trkpt>
      <trkpt lat="53.242051" lon="6.537581">
        <ele>-0.277547</ele>
        <time>2026-09-02T14:24:36.944Z</time>
      </trkpt>
      <trkpt lat="53.242153" lon="6.537507">
        <ele>-0.527815</ele>
        <time>2026-09-02T14:24:39.940Z</time>
      </trkpt>
      <trkpt lat="53.242242" lon="6.537428">
        <ele>-0.754628</ele>
        <time>2026-09-02T14:24:42.945Z</time>
      </trkpt>
      <trkpt lat="53.242244" lon="6.537254">
        <ele>-0.989025</ele>
        <time>2026-09-02T14:24:46.946Z</time>
      </trkpt>
      <trkpt lat="53.242299" lon="6.537105">
        <ele>-1.224813</ele>
        <time>2026-09-02T14:24:51.945Z</time>
      </trkpt>
      <trkpt lat="53.242408" lon="6.537041">
        <ele>-1.484836</ele>
        <time>2026-09-02T14:24:55.945Z</time>
      </trkpt>
      <trkpt lat="53.242505" lon="6.536964">
        <ele>-1.468033</ele>
        <time>2026-09-02T14:24:59.947Z</time>
      </trkpt>
      <trkpt lat="53.242513" lon="6.536791">
        <ele>-1.445048</ele>
        <time>2026-09-02T14:25:03.937Z</time>
      </trkpt>
      <trkpt lat="53.242478" lon="6.536638">
        <ele>-1.423349</ele>
        <time>2026-09-02T14:25:06.945Z</time>
      </trkpt>
      <trkpt lat="53.242460" lon="6.536484">
        <ele>-1.402563</ele>
        <time>2026-09-02T14:25:09.938Z</time>
      </trkpt>
      <trkpt lat="53.242482" lon="6.536658">
        <ele>-1.379005</ele>
        <time>2026-09-02T14:25:19.936Z</time>
      </trkpt>
      <trkpt lat="53.242523" lon="6.536847">
        <ele>-1.352373</ele>
        <time>2026-09-02T14:25:23.936Z</time>
      </trkpt>
      <trkpt lat="53.242553" lon="6.537008">
        <ele>-1.330036</ele>
        <time>2026-09-02T14:25:26.935Z</time>
      </trkpt>
      <trkpt lat="53.242644" lon="6.537082">
        <ele>-1.307633</ele>
        <time>2026-09-02T14:25:30.940Z</time>
      </trkpt>
      <trkpt lat="53.242735" lon="6.536949">
        <ele>-1.280871</ele>
        <time>2026-09-02T14:25:33.936Z</time>
      </trkpt>
      <trkpt lat="53.242826" lon="6.536828">
        <ele>-1.255128</ele>
        <time>2026-09-02T14:25:36.945Z</time>
      </trkpt>
      <trkpt lat="53.242921" lon="6.536710">
        <ele>-1.228925</ele>
        <time>2026-09-02T14:25:39.946Z</time>
      </trkpt>
      <trkpt lat="53.243022" lon="6.536583">
        <ele>-1.200945</ele>
        <time>2026-09-02T14:25:42.938Z</time>
      </trkpt>
      <trkpt lat="53.243109" lon="6.536452">
        <ele>-1.175021</ele>
        <time>2026-09-02T14:25:45.945Z</time>
      </trkpt>
      <trkpt lat="53.243180" lon="6.536287">
        <ele>-1.148100</ele>
        <time>2026-09-02T14:25:48.946Z</time>
      </trkpt>
      <trkpt lat="53.243229" lon="6.536082">
        <ele>-1.118858</ele>
        <time>2026-09-02T14:25:51.937Z</time>
      </trkpt>
      <trkpt lat="53.243277" lon="6.535894">
        <ele>-1.094826</ele>
        <time>2026-09-02T14:25:54.936Z</time>
      </trkpt>
      <trkpt lat="53.243361" lon="6.535761">
        <ele>-1.131850</ele>
        <time>2026-09-02T14:25:57.945Z</time>
      </trkpt>
      <trkpt lat="53.243453" lon="6.535704">
        <ele>-1.163243</ele>
        <time>2026-09-02T14:25:59.938Z</time>
      </trkpt>
      <trkpt lat="53.243569" lon="6.535639">
        <ele>-1.202387</ele>
        <time>2026-09-02T14:26:02.936Z</time>
      </trkpt>
      <trkpt lat="53.243684" lon="6.535567">
        <ele>-1.241678</ele>
        <time>2026-09-02T14:26:05.940Z</time>
      </trkpt>
      <trkpt lat="53.243808" lon="6.535488">
        <ele>-1.284137</ele>
        <time>2026-09-02T14:26:08.934Z</time>
      </trkpt>
      <trkpt lat="53.243927" lon="6.535399">
        <ele>-1.325850</ele>
        <time>2026-09-02T14:26:11.944Z</time>
      </trkpt>
      <trkpt lat="53.244033" lon="6.535321">
        <ele>-1.362906</ele>
        <time>2026-09-02T14:26:14.937Z</time>
      </trkpt>
      <trkpt lat="53.244133" lon="6.535249">
        <ele>-1.397744</ele>
        <time>2026-09-02T14:26:17.945Z</time>
      </trkpt>
      <trkpt lat="53.244239" lon="6.535171">
        <ele>-1.434800</ele>
        <time>2026-09-02T14:26:20.944Z</time>
      </trkpt>
      <trkpt lat="53.244350" lon="6.535102">
        <ele>-1.472692</ele>
        <time>2026-09-02T14:26:23.940Z</time>
      </trkpt>
      <trkpt lat="53.244454" lon="6.535037">
        <ele>-1.508217</ele>
        <time>2026-09-02T14:26:26.945Z</time>
      </trkpt>
      <trkpt lat="53.244537" lon="6.534951">
        <ele>-1.539463</ele>
        <time>2026-09-02T14:26:29.944Z</time>
      </trkpt>
      <trkpt lat="53.244521" lon="6.534766">
        <ele>-1.575250</ele>
        <time>2026-09-02T14:26:33.933Z</time>
      </trkpt>
      <trkpt lat="53.244477" lon="6.534602">
        <ele>-1.609660</ele>
        <time>2026-09-02T14:26:36.936Z</time>
      </trkpt>
      <trkpt lat="53.244436" lon="6.534409">
        <ele>-1.648871</ele>
        <time>2026-09-02T14:26:39.944Z</time>
      </trkpt>
      <trkpt lat="53.244392" lon="6.534221">
        <ele>-1.647917</ele>
        <time>2026-09-02T14:26:42.934Z</time>
      </trkpt>
      <trkpt lat="53.244343" lon="6.534027">
        <ele>-1.604314</ele>
        <time>2026-09-02T14:26:45.945Z</time>
      </trkpt>
      <trkpt lat="53.244293" lon="6.533832">
        <ele>-1.560386</ele>
        <time>2026-09-02T14:26:48.946Z</time>
      </trkpt>
      <trkpt lat="53.244243" lon="6.533637">
        <ele>-1.516457</ele>
        <time>2026-09-02T14:26:51.938Z</time>
      </trkpt>
      <trkpt lat="53.244191" lon="6.533446">
        <ele>-1.473007</ele>
        <time>2026-09-02T14:26:54.938Z</time>
      </trkpt>
      <trkpt lat="53.244159" lon="6.533262">
        <ele>-1.433330</ele>
        <time>2026-09-02T14:26:57.944Z</time>
      </trkpt>
      <trkpt lat="53.244206" lon="6.533113">
        <ele>-1.398453</ele>
        <time>2026-09-02T14:27:00.937Z</time>
      </trkpt>
      <trkpt lat="53.244327" lon="6.533050">
        <ele>-1.354599</ele>
        <time>2026-09-02T14:27:03.937Z</time>
      </trkpt>
      <trkpt lat="53.244430" lon="6.532983">
        <ele>-1.316352</ele>
        <time>2026-09-02T14:27:06.945Z</time>
      </trkpt>
      <trkpt lat="53.244528" lon="6.532953">
        <ele>-1.281877</ele>
        <time>2026-09-02T14:27:09.936Z</time>
      </trkpt>
      <trkpt lat="53.244596" lon="6.533097">
        <ele>-1.243894</ele>
        <time>2026-09-02T14:27:12.946Z</time>
      </trkpt>
      <trkpt lat="53.244638" lon="6.533306">
        <ele>-1.198242</ele>
        <time>2026-09-02T14:27:15.944Z</time>
      </trkpt>
      <trkpt lat="53.244681" lon="6.533511">
        <ele>-1.153262</ele>
        <time>2026-09-02T14:27:18.938Z</time>
      </trkpt>
      <trkpt lat="53.244719" lon="6.533688">
        <ele>-1.114324</ele>
        <time>2026-09-02T14:27:21.946Z</time>
      </trkpt>
      <trkpt lat="53.244756" lon="6.533848">
        <ele>-1.078806</ele>
        <time>2026-09-02T14:27:24.946Z</time>
      </trkpt>
      <trkpt lat="53.244800" lon="6.534027">
        <ele>-1.045324</ele>
        <time>2026-09-02T14:27:27.938Z</time>
      </trkpt>
      <trkpt lat="53.244852" lon="6.534207">
        <ele>-1.040920</ele>
        <time>2026-09-02T14:27:30.945Z</time>
      </trkpt>
      <trkpt lat="53.244902" lon="6.534373">
        <ele>-1.036825</ele>
        <time>2026-09-02T14:27:33.937Z</time>
      </trkpt>
      <trkpt lat="53.244922" lon="6.534531">
        <ele>-1.033267</ele>
        <time>2026-09-02T14:27:36.945Z</time>
      </trkpt>
      <trkpt lat="53.244984" lon="6.534657">
        <ele>-1.029673</ele>
        <time>2026-09-02T14:27:41.938Z</time>
      </trkpt>
      <trkpt lat="53.245087" lon="6.534591">
        <ele>-1.025611</ele>
        <time>2026-09-02T14:27:44.946Z</time>
      </trkpt>
      <trkpt lat="53.245203" lon="6.534507">
        <ele>-1.020956</ele>
        <time>2026-09-02T14:27:47.936Z</time>
      </trkpt>
      <trkpt lat="53.245313" lon="6.534430">
        <ele>-1.016564</ele>
        <time>2026-09-02T14:27:50.945Z</time>
      </trkpt>
      <trkpt lat="53.245410" lon="6.534358">
        <ele>-1.012656</ele>
        <time>2026-09-02T14:27:53.945Z</time>
      </trkpt>
      <trkpt lat="53.245499" lon="6.534293">
        <ele>-1.009080</ele>
        <time>2026-09-02T14:27:56.938Z</time>
      </trkpt>
      <trkpt lat="53.245599" lon="6.534222">
        <ele>-1.005079</ele>
        <time>2026-09-02T14:27:59.937Z</time>
      </trkpt>
      <trkpt lat="53.245710" lon="6.534140">
        <ele>-1.000610</ele>
        <time>2026-09-02T14:28:02.937Z</time>
      </trkpt>
      <trkpt lat="53.245806" lon="6.534032">
        <ele>-0.996349</ele>
        <time>2026-09-02T14:28:05.938Z</time>
      </trkpt>
      <trkpt lat="53.245845" lon="6.533849">
        <ele>-0.992069</ele>
        <time>2026-09-02T14:28:08.938Z</time>
      </trkpt>
      <trkpt lat="53.245817" lon="6.533658">
        <ele>-0.987736</ele>
        <time>2026-09-02T14:28:11.935Z</time>
      </trkpt>
      <trkpt lat="53.245770" lon="6.533479">
        <ele>-0.983429</ele>
        <time>2026-09-02T14:28:14.944Z</time>
      </trkpt>
      <trkpt lat="53.245723" lon="6.533294">
        <ele>-0.977097</ele>
        <time>2026-09-02T14:28:17.935Z</time>
      </trkpt>
      <trkpt lat="53.245678" lon="6.533120">
        <ele>-0.963878</ele>
        <time>2026-09-02T14:28:20.939Z</time>
      </trkpt>
      <trkpt lat="53.245625" lon="6.532930">
        <ele>-0.949259</ele>
        <time>2026-09-02T14:28:23.944Z</time>
      </trkpt>
      <trkpt lat="53.245576" lon="6.532734">
        <ele>-0.934445</ele>
        <time>2026-09-02T14:28:26.944Z</time>
      </trkpt>
      <trkpt lat="53.245542" lon="6.532593">
        <ele>-0.923844</ele>
        <time>2026-09-02T14:28:28.938Z</time>
      </trkpt>
      <trkpt lat="53.245493" lon="6.532411">
        <ele>-0.909926</ele>
        <time>2026-09-02T14:28:31.939Z</time>
      </trkpt>
      <trkpt lat="53.245439" lon="6.532209">
        <ele>-0.894497</ele>
        <time>2026-09-02T14:28:34.944Z</time>
      </trkpt>
      <trkpt lat="53.245390" lon="6.532002">
        <ele>-0.878973</ele>
        <time>2026-09-02T14:28:37.939Z</time>
      </trkpt>
      <trkpt lat="53.245345" lon="6.531815">
        <ele>-0.864917</ele>
        <time>2026-09-02T14:28:40.945Z</time>
      </trkpt>
      <trkpt lat="53.245297" lon="6.531628">
        <ele>-0.850727</ele>
        <time>2026-09-02T14:28:43.946Z</time>
      </trkpt>
      <trkpt lat="53.245245" lon="6.531430">
        <ele>-0.835647</ele>
        <time>2026-09-02T14:28:46.945Z</time>
      </trkpt>
      <trkpt lat="53.245210" lon="6.531241">
        <ele>-0.821850</ele>
        <time>2026-09-02T14:28:49.936Z</time>
      </trkpt>
      <trkpt lat="53.245262" lon="6.531057">
        <ele>-0.807659</ele>
        <time>2026-09-02T14:28:52.939Z</time>
      </trkpt>
      <trkpt lat="53.245355" lon="6.531036">
        <ele>-0.796722</ele>
        <time>2026-09-02T14:28:54.933Z</time>
      </trkpt>
      <trkpt lat="53.245481" lon="6.531013">
        <ele>-0.781950</ele>
        <time>2026-09-02T14:28:57.944Z</time>
      </trkpt>
      <trkpt lat="53.245597" lon="6.530983">
        <ele>-0.763590</ele>
        <time>2026-09-02T14:29:00.938Z</time>
      </trkpt>
      <trkpt lat="53.245718" lon="6.530959">
        <ele>-0.715997</ele>
        <time>2026-09-02T14:29:03.940Z</time>
      </trkpt>
      <trkpt lat="53.245847" lon="6.530935">
        <ele>-0.665300</ele>
        <time>2026-09-02T14:29:06.934Z</time>
      </trkpt>
      <trkpt lat="53.245978" lon="6.530892">
        <ele>-0.613156</ele>
        <time>2026-09-02T14:29:09.944Z</time>
      </trkpt>
      <trkpt lat="53.246077" lon="6.530786">
        <ele>-0.567232</ele>
        <time>2026-09-02T14:29:12.939Z</time>
      </trkpt>
      <trkpt lat="53.246078" lon="6.530592">
        <ele>-0.521888</ele>
        <time>2026-09-02T14:29:15.945Z</time>
      </trkpt>
      <trkpt lat="53.246037" lon="6.530401">
        <ele>-0.474462</ele>
        <time>2026-09-02T14:29:18.945Z</time>
      </trkpt>
      <trkpt lat="53.245989" lon="6.530247">
        <ele>-0.433879</ele>
        <time>2026-09-02T14:29:21.944Z</time>
      </trkpt>
      <trkpt lat="53.245946" lon="6.530075">
        <ele>-0.390312</ele>
        <time>2026-09-02T14:29:24.937Z</time>
      </trkpt>
      <trkpt lat="53.245900" lon="6.529904">
        <ele>-0.346493</ele>
        <time>2026-09-02T14:29:27.936Z</time>
      </trkpt>
      <trkpt lat="53.245856" lon="6.529734">
        <ele>-0.303202</ele>
        <time>2026-09-02T14:29:30.944Z</time>
      </trkpt>
      <trkpt lat="53.245760" lon="6.529635">
        <ele>-0.259141</ele>
        <time>2026-09-02T14:29:34.945Z</time>
      </trkpt>
      <trkpt lat="53.245664" lon="6.529695">
        <ele>-0.219108</ele>
        <time>2026-09-02T14:29:37.937Z</time>
      </trkpt>
      <trkpt lat="53.245565" lon="6.529786">
        <ele>-0.174977</ele>
        <time>2026-09-02T14:29:40.945Z</time>
      </trkpt>
      <trkpt lat="53.245458" lon="6.529876">
        <ele>-0.128189</ele>
        <time>2026-09-02T14:29:43.940Z</time>
      </trkpt>
      <trkpt lat="53.245352" lon="6.529952">
        <ele>-0.083137</ele>
        <time>2026-09-02T14:29:46.945Z</time>
      </trkpt>
      <trkpt lat="53.245244" lon="6.530039">
        <ele>-0.051045</ele>
        <time>2026-09-02T14:29:49.944Z</time>
      </trkpt>
      <trkpt lat="53.245141" lon="6.530090">
        <ele>-0.028765</ele>
        <time>2026-09-02T14:29:52.939Z</time>
      </trkpt>
      <trkpt lat="53.245055" lon="6.530010">
        <ele>-0.008351</ele>
        <time>2026-09-02T14:29:55.940Z</time>
      </trkpt>
      <trkpt lat="53.244955" lon="6.529906">
        <ele>0.016078</ele>
        <time>2026-09-02T14:29:58.946Z</time>
      </trkpt>
      <trkpt lat="53.244914" lon="6.529704">
        <ele>0.042551</ele>
        <time>2026-09-02T14:30:01.939Z</time>
      </trkpt>
      <trkpt lat="53.244865" lon="6.529511">
        <ele>0.068571</ele>
        <time>2026-09-02T14:30:04.944Z</time>
      </trkpt>
      <trkpt lat="53.244824" lon="6.529322">
        <ele>0.093522</ele>
        <time>2026-09-02T14:30:07.937Z</time>
      </trkpt>
      <trkpt lat="53.244782" lon="6.529137">
        <ele>0.118080</ele>
        <time>2026-09-02T14:30:10.944Z</time>
      </trkpt>
      <trkpt lat="53.244735" lon="6.528945">
        <ele>0.143826</ele>
        <time>2026-09-02T14:30:13.935Z</time>
      </trkpt>
      <trkpt lat="53.244682" lon="6.528754">
        <ele>0.169955</ele>
        <time>2026-09-02T14:30:16.944Z</time>
      </trkpt>
      <trkpt lat="53.244639" lon="6.528566">
        <ele>0.194935</ele>
        <time>2026-09-02T14:30:19.944Z</time>
      </trkpt>
      <trkpt lat="53.244589" lon="6.528373">
        <ele>0.221037</ele>
        <time>2026-09-02T14:30:22.938Z</time>
      </trkpt>
      <trkpt lat="53.244543" lon="6.528177">
        <ele>0.247166</ele>
        <time>2026-09-02T14:30:25.944Z</time>
      </trkpt>
      <trkpt lat="53.244490" lon="6.527982">
        <ele>0.273748</ele>
        <time>2026-09-02T14:30:28.937Z</time>
      </trkpt>
      <trkpt lat="53.244446" lon="6.527786">
        <ele>0.299729</ele>
        <time>2026-09-02T14:30:31.937Z</time>
      </trkpt>
      <trkpt lat="53.244397" lon="6.527598">
        <ele>0.376364</ele>
        <time>2026-09-02T14:30:34.937Z</time>
      </trkpt>
      <trkpt lat="53.244355" lon="6.527409">
        <ele>0.465867</ele>
        <time>2026-09-02T14:30:37.944Z</time>
      </trkpt>
      <trkpt lat="53.244318" lon="6.527242">
        <ele>0.544923</ele>
        <time>2026-09-02T14:30:40.944Z</time>
      </trkpt>
      <trkpt lat="53.244283" lon="6.527093">
        <ele>0.615984</ele>
        <time>2026-09-02T14:30:44.944Z</time>
      </trkpt>
      <trkpt lat="53.244214" lon="6.526889">
        <ele>0.720014</ele>
        <time>2026-09-02T14:31:27.936Z</time>
      </trkpt>
      <trkpt lat="53.244165" lon="6.526756">
        <ele>0.789351</ele>
        <time>2026-09-02T14:31:30.936Z</time>
      </trkpt>
      <trkpt lat="53.244119" lon="6.526616">
        <ele>0.860255</ele>
        <time>2026-09-02T14:31:33.943Z</time>
      </trkpt>
      <trkpt lat="53.244062" lon="6.526454">
        <ele>0.943684</ele>
        <time>2026-09-02T14:31:36.936Z</time>
      </trkpt>
      <trkpt lat="53.244010" lon="6.526283">
        <ele>1.028838</ele>
        <time>2026-09-02T14:31:39.936Z</time>
      </trkpt>
      <trkpt lat="53.243960" lon="6.526115">
        <ele>1.112136</ele>
        <time>2026-09-02T14:31:42.942Z</time>
      </trkpt>
      <trkpt lat="53.243903" lon="6.525958">
        <ele>1.193659</ele>
        <time>2026-09-02T14:31:45.942Z</time>
      </trkpt>
      <trkpt lat="53.243849" lon="6.525793">
        <ele>1.277149</ele>
        <time>2026-09-02T14:31:48.952Z</time>
      </trkpt>
      <trkpt lat="53.243795" lon="6.525626">
        <ele>1.361419</ele>
        <time>2026-09-02T14:31:51.938Z</time>
      </trkpt>
      <trkpt lat="53.243742" lon="6.525464">
        <ele>1.443385</ele>
        <time>2026-09-02T14:31:54.938Z</time>
      </trkpt>
      <trkpt lat="53.243684" lon="6.525296">
        <ele>1.529490</ele>
        <time>2026-09-02T14:31:57.951Z</time>
      </trkpt>
      <trkpt lat="53.243629" lon="6.525114">
        <ele>1.620006</ele>
        <time>2026-09-02T14:32:00.943Z</time>
      </trkpt>
      <trkpt lat="53.243573" lon="6.524928">
        <ele>1.627899</ele>
        <time>2026-09-02T14:32:03.936Z</time>
      </trkpt>
      <trkpt lat="53.243516" lon="6.524749">
        <ele>1.613325</ele>
        <time>2026-09-02T14:32:06.941Z</time>
      </trkpt>
      <trkpt lat="53.243462" lon="6.524589">
        <ele>1.600122</ele>
        <time>2026-09-02T14:32:09.935Z</time>
      </trkpt>
      <trkpt lat="53.243414" lon="6.524422">
        <ele>1.586806</ele>
        <time>2026-09-02T14:32:12.937Z</time>
      </trkpt>
      <trkpt lat="53.243357" lon="6.524258">
        <ele>1.573175</ele>
        <time>2026-09-02T14:32:15.937Z</time>
      </trkpt>
      <trkpt lat="53.243306" lon="6.524102">
        <ele>1.560398</ele>
        <time>2026-09-02T14:32:18.935Z</time>
      </trkpt>
      <trkpt lat="53.243253" lon="6.523932">
        <ele>1.546620</ele>
        <time>2026-09-02T14:32:21.943Z</time>
      </trkpt>
      <trkpt lat="53.243197" lon="6.523762">
        <ele>1.532673</ele>
        <time>2026-09-02T14:32:24.938Z</time>
      </trkpt>
      <trkpt lat="53.243133" lon="6.523569">
        <ele>1.516813</ele>
        <time>2026-09-02T14:32:27.938Z</time>
      </trkpt>
      <trkpt lat="53.243071" lon="6.523381">
        <ele>1.501385</ele>
        <time>2026-09-02T14:32:30.951Z</time>
      </trkpt>
      <trkpt lat="53.243016" lon="6.523197">
        <ele>1.486601</ele>
        <time>2026-09-02T14:32:33.938Z</time>
      </trkpt>
      <trkpt lat="53.242958" lon="6.523020">
        <ele>1.472097</ele>
        <time>2026-09-02T14:32:36.936Z</time>
      </trkpt>
      <trkpt lat="53.242893" lon="6.522824">
        <ele>1.455991</ele>
        <time>2026-09-02T14:32:39.938Z</time>
      </trkpt>
      <trkpt lat="53.242855" lon="6.522687">
        <ele>1.445137</ele>
        <time>2026-09-02T14:32:41.939Z</time>
      </trkpt>
      <trkpt lat="53.242813" lon="6.522552">
        <ele>1.434201</ele>
        <time>2026-09-02T14:32:43.936Z</time>
      </trkpt>
      <trkpt lat="53.242766" lon="6.522413">
        <ele>1.419295</ele>
        <time>2026-09-02T14:32:45.937Z</time>
      </trkpt>
      <trkpt lat="53.242720" lon="6.522272">
        <ele>1.364736</ele>
        <time>2026-09-02T14:32:47.943Z</time>
      </trkpt>
      <trkpt lat="53.242664" lon="6.522086">
        <ele>1.293998</ele>
        <time>2026-09-02T14:32:50.938Z</time>
      </trkpt>
      <trkpt lat="53.242608" lon="6.521905">
        <ele>1.224773</ele>
        <time>2026-09-02T14:32:53.936Z</time>
      </trkpt>
      <trkpt lat="53.242550" lon="6.521713">
        <ele>1.151704</ele>
        <time>2026-09-02T14:32:56.936Z</time>
      </trkpt>
      <trkpt lat="53.242497" lon="6.521519">
        <ele>1.079251</ele>
        <time>2026-09-02T14:32:59.935Z</time>
      </trkpt>
      <trkpt lat="53.242443" lon="6.521349">
        <ele>1.013864</ele>
        <time>2026-09-02T14:33:02.938Z</time>
      </trkpt>
      <trkpt lat="53.242388" lon="6.521188">
        <ele>0.950881</ele>
        <time>2026-09-02T14:33:05.937Z</time>
      </trkpt>
      <trkpt lat="53.242330" lon="6.521018">
        <ele>0.884398</ele>
        <time>2026-09-02T14:33:08.953Z</time>
      </trkpt>
      <trkpt lat="53.242273" lon="6.520838">
        <ele>0.815210</ele>
        <time>2026-09-02T14:33:11.943Z</time>
      </trkpt>
      <trkpt lat="53.242216" lon="6.520649">
        <ele>0.743306</ele>
        <time>2026-09-02T14:33:14.943Z</time>
      </trkpt>
      <trkpt lat="53.242157" lon="6.520465">
        <ele>0.672386</ele>
        <time>2026-09-02T14:33:17.936Z</time>
      </trkpt>
      <trkpt lat="53.242098" lon="6.520286">
        <ele>0.602957</ele>
        <time>2026-09-02T14:33:20.936Z</time>
      </trkpt>
      <trkpt lat="53.242036" lon="6.520107">
        <ele>0.532692</ele>
        <time>2026-09-02T14:33:23.938Z</time>
      </trkpt>
      <trkpt lat="53.241976" lon="6.519917">
        <ele>0.459704</ele>
        <time>2026-09-02T14:33:26.934Z</time>
      </trkpt>
      <trkpt lat="53.241913" lon="6.519734">
        <ele>0.396321</ele>
        <time>2026-09-02T14:33:29.935Z</time>
      </trkpt>
      <trkpt lat="53.241856" lon="6.519546">
        <ele>0.365784</ele>
        <time>2026-09-02T14:33:32.943Z</time>
      </trkpt>
      <trkpt lat="53.241787" lon="6.519365">
        <ele>0.334689</ele>
        <time>2026-09-02T14:33:35.937Z</time>
      </trkpt>
      <trkpt lat="53.241706" lon="6.519194">
        <ele>0.303089</ele>
        <time>2026-09-02T14:33:38.943Z</time>
      </trkpt>
      <trkpt lat="53.241619" lon="6.519046">
        <ele>0.273029</ele>
        <time>2026-09-02T14:33:41.943Z</time>
      </trkpt>
      <trkpt lat="53.241533" lon="6.518902">
        <ele>0.243552</ele>
        <time>2026-09-02T14:33:44.935Z</time>
      </trkpt>
      <trkpt lat="53.241472" lon="6.518721">
        <ele>0.213453</ele>
        <time>2026-09-02T14:33:47.935Z</time>
      </trkpt>
      <trkpt lat="53.241390" lon="6.518649">
        <ele>0.191025</ele>
        <time>2026-09-02T14:33:49.944Z</time>
      </trkpt>
      <trkpt lat="53.241281" lon="6.518584">
        <ele>0.163003</ele>
        <time>2026-09-02T14:33:52.944Z</time>
      </trkpt>
      <trkpt lat="53.241159" lon="6.518528">
        <ele>0.132370</ele>
        <time>2026-09-02T14:33:55.943Z</time>
      </trkpt>
      <trkpt lat="53.241026" lon="6.518495">
        <ele>0.099815</ele>
        <time>2026-09-02T14:33:58.944Z</time>
      </trkpt>
      <trkpt lat="53.240907" lon="6.518494">
        <ele>0.071002</ele>
        <time>2026-09-02T14:34:01.936Z</time>
      </trkpt>
      <trkpt lat="53.240778" lon="6.518520">
        <ele>0.039542</ele>
        <time>2026-09-02T14:34:04.934Z</time>
      </trkpt>
      <trkpt lat="53.240659" lon="6.518554">
        <ele>0.010311</ele>
        <time>2026-09-02T14:34:07.943Z</time>
      </trkpt>
      <trkpt lat="53.240542" lon="6.518618">
        <ele>-0.019496</ele>
        <time>2026-09-02T14:34:10.934Z</time>
      </trkpt>
      <trkpt lat="53.240431" lon="6.518671">
        <ele>-0.016321</ele>
        <time>2026-09-02T14:34:13.943Z</time>
      </trkpt>
      <trkpt lat="53.240337" lon="6.518758">
        <ele>0.013584</ele>
        <time>2026-09-02T14:34:16.937Z</time>
      </trkpt>
      <trkpt lat="53.240234" lon="6.518871">
        <ele>0.047875</ele>
        <time>2026-09-02T14:34:19.939Z</time>
      </trkpt>
      <trkpt lat="53.240117" lon="6.518923">
        <ele>0.081569</ele>
        <time>2026-09-02T14:34:22.937Z</time>
      </trkpt>
      <trkpt lat="53.240031" lon="6.518970">
        <ele>0.106750</ele>
        <time>2026-09-02T14:34:24.943Z</time>
      </trkpt>
      <trkpt lat="53.239943" lon="6.519019">
        <ele>0.132565</ele>
        <time>2026-09-02T14:34:26.943Z</time>
      </trkpt>
      <trkpt lat="53.239853" lon="6.519066">
        <ele>0.158807</ele>
        <time>2026-09-02T14:34:28.935Z</time>
      </trkpt>
      <trkpt lat="53.239765" lon="6.519112">
        <ele>0.184468</ele>
        <time>2026-09-02T14:34:30.943Z</time>
      </trkpt>
      <trkpt lat="53.239635" lon="6.519177">
        <ele>0.222232</ele>
        <time>2026-09-02T14:34:33.938Z</time>
      </trkpt>
      <trkpt lat="53.239546" lon="6.519212">
        <ele>0.247678</ele>
        <time>2026-09-02T14:34:35.936Z</time>
      </trkpt>
      <trkpt lat="53.239454" lon="6.519257">
        <ele>0.274356</ele>
        <time>2026-09-02T14:34:37.936Z</time>
      </trkpt>
      <trkpt lat="53.239364" lon="6.519297">
        <ele>0.300274</ele>
        <time>2026-09-02T14:34:39.943Z</time>
      </trkpt>
      <trkpt lat="53.239244" lon="6.519354">
        <ele>0.334994</ele>
        <time>2026-09-02T14:34:42.943Z</time>
      </trkpt>
      <trkpt lat="53.239121" lon="6.519407">
        <ele>0.370345</ele>
        <time>2026-09-02T14:34:45.936Z</time>
      </trkpt>
      <trkpt lat="53.239030" lon="6.519453">
        <ele>0.396804</ele>
        <time>2026-09-02T14:34:47.942Z</time>
      </trkpt>
      <trkpt lat="53.238942" lon="6.519487">
        <ele>0.421940</ele>
        <time>2026-09-02T14:34:49.932Z</time>
      </trkpt>
      <trkpt lat="53.238813" lon="6.519552">
        <ele>0.459438</ele>
        <time>2026-09-02T14:34:52.936Z</time>
      </trkpt>
      <trkpt lat="53.238723" lon="6.519591">
        <ele>0.472078</ele>
        <time>2026-09-02T14:34:54.939Z</time>
      </trkpt>
      <trkpt lat="53.238635" lon="6.519635">
        <ele>0.478541</ele>
        <time>2026-09-02T14:34:56.937Z</time>
      </trkpt>
      <trkpt lat="53.238507" lon="6.519699">
        <ele>0.487941</ele>
        <time>2026-09-02T14:34:59.936Z</time>
      </trkpt>
      <trkpt lat="53.238382" lon="6.519759">
        <ele>0.497092</ele>
        <time>2026-09-02T14:35:02.937Z</time>
      </trkpt>
      <trkpt lat="53.238252" lon="6.519816">
        <ele>0.506548</ele>
        <time>2026-09-02T14:35:05.937Z</time>
      </trkpt>
      <trkpt lat="53.238162" lon="6.519863">
        <ele>0.513182</ele>
        <time>2026-09-02T14:35:07.936Z</time>
      </trkpt>
      <trkpt lat="53.238033" lon="6.519923">
        <ele>0.522604</ele>
        <time>2026-09-02T14:35:10.936Z</time>
      </trkpt>
      <trkpt lat="53.237944" lon="6.519968">
        <ele>0.529146</ele>
        <time>2026-09-02T14:35:12.938Z</time>
      </trkpt>
      <trkpt lat="53.237828" lon="6.520019">
        <ele>0.537585</ele>
        <time>2026-09-02T14:35:15.939Z</time>
      </trkpt>
      <trkpt lat="53.237721" lon="6.520064">
        <ele>0.545349</ele>
        <time>2026-09-02T14:35:18.937Z</time>
      </trkpt>
      <trkpt lat="53.237615" lon="6.520121">
        <ele>0.553183</ele>
        <time>2026-09-02T14:35:21.936Z</time>
      </trkpt>
      <trkpt lat="53.237502" lon="6.520178">
        <ele>0.561488</ele>
        <time>2026-09-02T14:35:24.936Z</time>
      </trkpt>
      <trkpt lat="53.237387" lon="6.520236">
        <ele>0.569940</ele>
        <time>2026-09-02T14:35:27.937Z</time>
      </trkpt>
      <trkpt lat="53.237282" lon="6.520256">
        <ele>0.577376</ele>
        <time>2026-09-02T14:35:30.937Z</time>
      </trkpt>
      <trkpt lat="53.237176" lon="6.520251">
        <ele>0.584837</ele>
        <time>2026-09-02T14:35:33.938Z</time>
      </trkpt>
      <trkpt lat="53.237090" lon="6.520350">
        <ele>0.592185</ele>
        <time>2026-09-02T14:35:36.936Z</time>
      </trkpt>
      <trkpt lat="53.237065" lon="6.520528">
        <ele>0.626969</ele>
        <time>2026-09-02T14:35:39.936Z</time>
      </trkpt>
      <trkpt lat="53.237109" lon="6.520699">
        <ele>0.671828</ele>
        <time>2026-09-02T14:35:42.938Z</time>
      </trkpt>
      <trkpt lat="53.237172" lon="6.520880">
        <ele>0.722291</ele>
        <time>2026-09-02T14:35:45.936Z</time>
      </trkpt>
      <trkpt lat="53.237211" lon="6.521082">
        <ele>0.773444</ele>
        <time>2026-09-02T14:35:48.937Z</time>
      </trkpt>
      <trkpt lat="53.237250" lon="6.521288">
        <ele>0.825516</ele>
        <time>2026-09-02T14:35:51.935Z</time>
      </trkpt>
      <trkpt lat="53.237284" lon="6.521489">
        <ele>0.875856</ele>
        <time>2026-09-02T14:35:54.936Z</time>
      </trkpt>
      <trkpt lat="53.237324" lon="6.521641">
        <ele>0.915873</ele>
        <time>2026-09-02T14:35:56.943Z</time>
      </trkpt>
      <trkpt lat="53.237360" lon="6.521791">
        <ele>0.954822</ele>
        <time>2026-09-02T14:35:58.944Z</time>
      </trkpt>
      <trkpt lat="53.237390" lon="6.521933">
        <ele>0.991114</ele>
        <time>2026-09-02T14:36:00.946Z</time>
      </trkpt>
      <trkpt lat="53.237433" lon="6.522144">
        <ele>1.044834</ele>
        <time>2026-09-02T14:36:03.933Z</time>
      </trkpt>
      <trkpt lat="53.237477" lon="6.522358">
        <ele>1.099367</ele>
        <time>2026-09-02T14:36:06.934Z</time>
      </trkpt>
      <trkpt lat="53.237507" lon="6.522506">
        <ele>1.137026</ele>
        <time>2026-09-02T14:36:08.935Z</time>
      </trkpt>
      <trkpt lat="53.237537" lon="6.522648">
        <ele>1.173318</ele>
        <time>2026-09-02T14:36:10.943Z</time>
      </trkpt>
      <trkpt lat="53.237579" lon="6.522839">
        <ele>1.222358</ele>
        <time>2026-09-02T14:36:13.931Z</time>
      </trkpt>
      <trkpt lat="53.237626" lon="6.523043">
        <ele>1.275040</ele>
        <time>2026-09-02T14:36:16.935Z</time>
      </trkpt>
      <trkpt lat="53.237656" lon="6.523189">
        <ele>1.312243</ele>
        <time>2026-09-02T14:36:18.934Z</time>
      </trkpt>
      <trkpt lat="53.237686" lon="6.523335">
        <ele>1.344622</ele>
        <time>2026-09-02T14:36:20.943Z</time>
      </trkpt>
      <trkpt lat="53.237733" lon="6.523543">
        <ele>1.389872</ele>
        <time>2026-09-02T14:36:23.930Z</time>
      </trkpt>
      <trkpt lat="53.237763" lon="6.523691">
        <ele>1.421675</ele>
        <time>2026-09-02T14:36:25.943Z</time>
      </trkpt>
      <trkpt lat="53.237795" lon="6.523833">
        <ele>1.452556</ele>
        <time>2026-09-02T14:36:27.932Z</time>
      </trkpt>
      <trkpt lat="53.237836" lon="6.524040">
        <ele>1.496933</ele>
        <time>2026-09-02T14:36:30.934Z</time>
      </trkpt>
      <trkpt lat="53.237881" lon="6.524243">
        <ele>1.540992</ele>
        <time>2026-09-02T14:36:33.943Z</time>
      </trkpt>
      <trkpt lat="53.237915" lon="6.524393">
        <ele>1.573637</ele>
        <time>2026-09-02T14:36:35.939Z</time>
      </trkpt>
      <trkpt lat="53.237951" lon="6.524531">
        <ele>1.604276</ele>
        <time>2026-09-02T14:36:37.938Z</time>
      </trkpt>
      <trkpt lat="53.237986" lon="6.524735">
        <ele>1.647467</ele>
        <time>2026-09-02T14:36:40.938Z</time>
      </trkpt>
      <trkpt lat="53.237957" lon="6.524902">
        <ele>1.682857</ele>
        <time>2026-09-02T14:36:43.938Z</time>
      </trkpt>
      <trkpt lat="53.237849" lon="6.524998">
        <ele>1.724458</ele>
        <time>2026-09-02T14:36:46.935Z</time>
      </trkpt>
      <trkpt lat="53.237742" lon="6.525094">
        <ele>1.765759</ele>
        <time>2026-09-02T14:36:49.935Z</time>
      </trkpt>
      <trkpt lat="53.237654" lon="6.525167">
        <ele>1.799170</ele>
        <time>2026-09-02T14:36:52.936Z</time>
      </trkpt>
      <trkpt lat="53.237546" lon="6.525235">
        <ele>1.838418</ele>
        <time>2026-09-02T14:36:56.938Z</time>
      </trkpt>
      <trkpt lat="53.237463" lon="6.525312">
        <ele>1.870702</ele>
        <time>2026-09-02T14:37:00.943Z</time>
      </trkpt>
      <trkpt lat="53.237371" lon="6.525373">
        <ele>1.904361</ele>
        <time>2026-09-02T14:37:04.931Z</time>
      </trkpt>
      <trkpt lat="53.237280" lon="6.525462">
        <ele>1.917656</ele>
        <time>2026-09-02T14:37:07.931Z</time>
      </trkpt>
      <trkpt lat="53.237177" lon="6.525546">
        <ele>1.869892</ele>
        <time>2026-09-02T14:37:10.931Z</time>
      </trkpt>
      <trkpt lat="53.237072" lon="6.525642">
        <ele>1.820012</ele>
        <time>2026-09-02T14:37:13.943Z</time>
      </trkpt>
      <trkpt lat="53.236965" lon="6.525728">
        <ele>1.770530</ele>
        <time>2026-09-02T14:37:16.933Z</time>
      </trkpt>
      <trkpt lat="53.236865" lon="6.525775">
        <ele>1.727238</ele>
        <time>2026-09-02T14:37:21.944Z</time>
      </trkpt>
      <trkpt lat="53.236823" lon="6.525621">
        <ele>1.685028</ele>
        <time>2026-09-02T14:37:26.943Z</time>
      </trkpt>
      <trkpt lat="53.236774" lon="6.525486">
        <ele>1.645648</ele>
        <time>2026-09-02T14:37:30.936Z</time>
      </trkpt>
      <trkpt lat="53.236681" lon="6.525507">
        <ele>1.606539</ele>
        <time>2026-09-02T14:37:35.936Z</time>
      </trkpt>
      <trkpt lat="53.236577" lon="6.525601">
        <ele>1.557263</ele>
        <time>2026-09-02T14:37:39.939Z</time>
      </trkpt>
      <trkpt lat="53.236481" lon="6.525673">
        <ele>1.513410</ele>
        <time>2026-09-02T14:37:43.931Z</time>
      </trkpt>
      <trkpt lat="53.236397" lon="6.525752">
        <ele>1.473239</ele>
        <time>2026-09-02T14:37:47.935Z</time>
      </trkpt>
      <trkpt lat="53.236290" lon="6.525843">
        <ele>1.423204</ele>
        <time>2026-09-02T14:37:51.935Z</time>
      </trkpt>
      <trkpt lat="53.236214" lon="6.525947">
        <ele>1.382265</ele>
        <time>2026-09-02T14:37:55.945Z</time>
      </trkpt>
      <trkpt lat="53.236263" lon="6.526075">
        <ele>1.344366</ele>
        <time>2026-09-02T14:37:59.943Z</time>
      </trkpt>
      <trkpt lat="53.236311" lon="6.526208">
        <ele>1.305629</ele>
        <time>2026-09-02T14:38:04.943Z</time>
      </trkpt>
      <trkpt lat="53.236272" lon="6.526360">
        <ele>1.264379</ele>
        <time>2026-09-02T14:38:12.932Z</time>
      </trkpt>
      <trkpt lat="53.236182" lon="6.526435">
        <ele>1.222466</ele>
        <time>2026-09-02T14:38:15.933Z</time>
      </trkpt>
      <trkpt lat="53.236083" lon="6.526526">
        <ele>1.170301</ele>
        <time>2026-09-02T14:38:18.936Z</time>
      </trkpt>
      <trkpt lat="53.235979" lon="6.526618">
        <ele>1.072813</ele>
        <time>2026-09-02T14:38:21.943Z</time>
      </trkpt>
      <trkpt lat="53.235882" lon="6.526702">
        <ele>0.982303</ele>
        <time>2026-09-02T14:38:24.936Z</time>
      </trkpt>
      <trkpt lat="53.235786" lon="6.526785">
        <ele>0.892757</ele>
        <time>2026-09-02T14:38:27.943Z</time>
      </trkpt>
      <trkpt lat="53.235680" lon="6.526879">
        <ele>0.793340</ele>
        <time>2026-09-02T14:38:30.934Z</time>
      </trkpt>
      <trkpt lat="53.235573" lon="6.526978">
        <ele>0.692014</ele>
        <time>2026-09-02T14:38:33.943Z</time>
      </trkpt>
      <trkpt lat="53.235468" lon="6.527073">
        <ele>0.593093</ele>
        <time>2026-09-02T14:38:36.937Z</time>
      </trkpt>
      <trkpt lat="53.235383" lon="6.527163">
        <ele>0.509727</ele>
        <time>2026-09-02T14:38:39.934Z</time>
      </trkpt>
      <trkpt lat="53.235298" lon="6.527269">
        <ele>0.421858</ele>
        <time>2026-09-02T14:38:43.936Z</time>
      </trkpt>
      <trkpt lat="53.235212" lon="6.527323">
        <ele>0.345747</ele>
        <time>2026-09-02T14:38:46.943Z</time>
      </trkpt>
      <trkpt lat="53.235158" lon="6.527491">
        <ele>0.251194</ele>
        <time>2026-09-02T14:38:50.943Z</time>
      </trkpt>
      <trkpt lat="53.235170" lon="6.527668">
        <ele>0.162868</ele>
        <time>2026-09-02T14:38:54.943Z</time>
      </trkpt>
      <trkpt lat="53.235200" lon="6.527857">
        <ele>0.065915</ele>
        <time>2026-09-02T14:38:58.936Z</time>
      </trkpt>
      <trkpt lat="53.235107" lon="6.527962">
        <ele>-0.027071</ele>
        <time>2026-09-02T14:39:03.944Z</time>
      </trkpt>
      <trkpt lat="53.234999" lon="6.528014">
        <ele>-0.120183</ele>
        <time>2026-09-02T14:39:07.937Z</time>
      </trkpt>
      <trkpt lat="53.234907" lon="6.528054">
        <ele>-0.198937</ele>
        <time>2026-09-02T14:39:11.943Z</time>
      </trkpt>
      <trkpt lat="53.234821" lon="6.528122">
        <ele>-0.277758</ele>
        <time>2026-09-02T14:39:21.935Z</time>
      </trkpt>
      <trkpt lat="53.234723" lon="6.528138">
        <ele>-0.255326</ele>
        <time>2026-09-02T14:39:28.936Z</time>
      </trkpt>
      <trkpt lat="53.234673" lon="6.528265">
        <ele>-0.173270</ele>
        <time>2026-09-02T14:39:36.937Z</time>
      </trkpt>
      <trkpt lat="53.234681" lon="6.528424">
        <ele>-0.087139</ele>
        <time>2026-09-02T14:39:39.935Z</time>
      </trkpt>
      <trkpt lat="53.234714" lon="6.528629">
        <ele>0.027453</ele>
        <time>2026-09-02T14:39:42.937Z</time>
      </trkpt>
      <trkpt lat="53.234751" lon="6.528827">
        <ele>0.139421</ele>
        <time>2026-09-02T14:39:45.938Z</time>
      </trkpt>
      <trkpt lat="53.234788" lon="6.529027">
        <ele>0.252421</ele>
        <time>2026-09-02T14:39:48.938Z</time>
      </trkpt>
      <trkpt lat="53.234820" lon="6.529237">
        <ele>0.369395</ele>
        <time>2026-09-02T14:39:51.938Z</time>
      </trkpt>
      <trkpt lat="53.234848" lon="6.529447">
        <ele>0.485531</ele>
        <time>2026-09-02T14:39:54.940Z</time>
      </trkpt>
      <trkpt lat="53.234878" lon="6.529643">
        <ele>0.594736</ele>
        <time>2026-09-02T14:39:57.938Z</time>
      </trkpt>
      <trkpt lat="53.234907" lon="6.529832">
        <ele>0.700057</ele>
        <time>2026-09-02T14:40:00.936Z</time>
      </trkpt>
      <trkpt lat="53.234934" lon="6.530009">
        <ele>0.798656</ele>
        <time>2026-09-02T14:40:03.940Z</time>
      </trkpt>
      <trkpt lat="53.234884" lon="6.530164">
        <ele>0.893702</ele>
        <time>2026-09-02T14:40:08.938Z</time>
      </trkpt>
      <trkpt lat="53.234783" lon="6.530226">
        <ele>0.990744</ele>
        <time>2026-09-02T14:40:11.929Z</time>
      </trkpt>
      <trkpt lat="53.234674" lon="6.530307">
        <ele>1.098333</ele>
        <time>2026-09-02T14:40:14.938Z</time>
      </trkpt>
      <trkpt lat="53.234562" lon="6.530352">
        <ele>1.202222</ele>
        <time>2026-09-02T14:40:17.934Z</time>
      </trkpt>
      <trkpt lat="53.234439" lon="6.530409">
        <ele>1.312637</ele>
        <time>2026-09-02T14:40:20.938Z</time>
      </trkpt>
      <trkpt lat="53.234315" lon="6.530498">
        <ele>1.313638</ele>
        <time>2026-09-02T14:40:23.938Z</time>
      </trkpt>
      <trkpt lat="53.234186" lon="6.530577">
        <ele>1.314656</ele>
        <time>2026-09-02T14:40:26.938Z</time>
      </trkpt>
      <trkpt lat="53.234098" lon="6.530628">
        <ele>1.315347</ele>
        <time>2026-09-02T14:40:28.935Z</time>
      </trkpt>
      <trkpt lat="53.233971" lon="6.530695">
        <ele>1.316334</ele>
        <time>2026-09-02T14:40:31.935Z</time>
      </trkpt>
      <trkpt lat="53.233885" lon="6.530743">
        <ele>1.317006</ele>
        <time>2026-09-02T14:40:33.937Z</time>
      </trkpt>
      <trkpt lat="53.233799" lon="6.530799">
        <ele>1.317691</ele>
        <time>2026-09-02T14:40:35.936Z</time>
      </trkpt>
      <trkpt lat="53.233715" lon="6.530853">
        <ele>1.318358</ele>
        <time>2026-09-02T14:40:37.937Z</time>
      </trkpt>
      <trkpt lat="53.233629" lon="6.530906">
        <ele>1.319037</ele>
        <time>2026-09-02T14:40:39.939Z</time>
      </trkpt>
      <trkpt lat="53.233540" lon="6.530962">
        <ele>1.319742</ele>
        <time>2026-09-02T14:40:41.937Z</time>
      </trkpt>
      <trkpt lat="53.233421" lon="6.531054">
        <ele>1.320714</ele>
        <time>2026-09-02T14:40:44.938Z</time>
      </trkpt>
      <trkpt lat="53.233318" lon="6.531166">
        <ele>1.321626</ele>
        <time>2026-09-02T14:40:47.939Z</time>
      </trkpt>
      <trkpt lat="53.233260" lon="6.531291">
        <ele>1.322327</ele>
        <time>2026-09-02T14:40:50.939Z</time>
      </trkpt>
      <trkpt lat="53.233305" lon="6.531431">
        <ele>1.323032</ele>
        <time>2026-09-02T14:40:53.938Z</time>
      </trkpt>
      <trkpt lat="53.233373" lon="6.531590">
        <ele>1.323900</ele>
        <time>2026-09-02T14:40:56.936Z</time>
      </trkpt>
      <trkpt lat="53.233423" lon="6.531769">
        <ele>1.324776</ele>
        <time>2026-09-02T14:40:59.938Z</time>
      </trkpt>
      <trkpt lat="53.233474" lon="6.531946">
        <ele>1.325648</ele>
        <time>2026-09-02T14:41:02.937Z</time>
      </trkpt>
      <trkpt lat="53.233516" lon="6.532127">
        <ele>1.339021</ele>
        <time>2026-09-02T14:41:05.937Z</time>
      </trkpt>
      <trkpt lat="53.233545" lon="6.532304">
        <ele>1.357497</ele>
        <time>2026-09-02T14:41:08.944Z</time>
      </trkpt>
      <trkpt lat="53.233500" lon="6.532458">
        <ele>1.374750</ele>
        <time>2026-09-02T14:41:11.951Z</time>
      </trkpt>
      <trkpt lat="53.233410" lon="6.532537">
        <ele>1.391851</ele>
        <time>2026-09-02T14:41:14.937Z</time>
      </trkpt>
      <trkpt lat="53.233303" lon="6.532608">
        <ele>1.411217</ele>
        <time>2026-09-02T14:41:17.943Z</time>
      </trkpt>
      <trkpt lat="53.233188" lon="6.532637">
        <ele>1.430779</ele>
        <time>2026-09-02T14:41:20.937Z</time>
      </trkpt>
      <trkpt lat="53.233066" lon="6.532691">
        <ele>1.452008</ele>
        <time>2026-09-02T14:41:23.943Z</time>
      </trkpt>
      <trkpt lat="53.232979" lon="6.532732">
        <ele>1.467213</ele>
        <time>2026-09-02T14:41:25.935Z</time>
      </trkpt>
      <trkpt lat="53.232860" lon="6.532795">
        <ele>1.488210</ele>
        <time>2026-09-02T14:41:28.943Z</time>
      </trkpt>
      <trkpt lat="53.232750" lon="6.532853">
        <ele>1.507612</ele>
        <time>2026-09-02T14:41:31.936Z</time>
      </trkpt>
      <trkpt lat="53.232632" lon="6.532912">
        <ele>1.528330</ele>
        <time>2026-09-02T14:41:34.937Z</time>
      </trkpt>
      <trkpt lat="53.232520" lon="6.532997">
        <ele>1.549022</ele>
        <time>2026-09-02T14:41:37.937Z</time>
      </trkpt>
      <trkpt lat="53.232486" lon="6.533173">
        <ele>1.567642</ele>
        <time>2026-09-02T14:41:40.944Z</time>
      </trkpt>
      <trkpt lat="53.232530" lon="6.533356">
        <ele>1.587497</ele>
        <time>2026-09-02T14:41:43.940Z</time>
      </trkpt>
      <trkpt lat="53.232567" lon="6.533557">
        <ele>1.608670</ele>
        <time>2026-09-02T14:41:46.943Z</time>
      </trkpt>
      <trkpt lat="53.232619" lon="6.533746">
        <ele>1.623817</ele>
        <time>2026-09-02T14:41:49.937Z</time>
      </trkpt>
      <trkpt lat="53.232655" lon="6.533929">
        <ele>1.544699</ele>
        <time>2026-09-02T14:41:52.935Z</time>
      </trkpt>
      <trkpt lat="53.232684" lon="6.534123">
        <ele>1.462572</ele>
        <time>2026-09-02T14:41:55.932Z</time>
      </trkpt>
      <trkpt lat="53.232720" lon="6.534320">
        <ele>1.377973</ele>
        <time>2026-09-02T14:41:58.937Z</time>
      </trkpt>
      <trkpt lat="53.232760" lon="6.534527">
        <ele>1.288632</ele>
        <time>2026-09-02T14:42:01.936Z</time>
      </trkpt>
      <trkpt lat="53.232777" lon="6.534713">
        <ele>1.211353</ele>
        <time>2026-09-02T14:42:04.934Z</time>
      </trkpt>
      <trkpt lat="53.232820" lon="6.534883">
        <ele>1.135551</ele>
        <time>2026-09-02T14:42:07.936Z</time>
      </trkpt>
      <trkpt lat="53.232854" lon="6.535078">
        <ele>1.052132</ele>
        <time>2026-09-02T14:42:10.937Z</time>
      </trkpt>
      <trkpt lat="53.232891" lon="6.535286">
        <ele>0.963009</ele>
        <time>2026-09-02T14:42:13.935Z</time>
      </trkpt>
      <trkpt lat="53.232928" lon="6.535483">
        <ele>0.878207</ele>
        <time>2026-09-02T14:42:16.937Z</time>
      </trkpt>
      <trkpt lat="53.232964" lon="6.535678">
        <ele>0.794394</ele>
        <time>2026-09-02T14:42:19.938Z</time>
      </trkpt>
      <trkpt lat="53.233001" lon="6.535881">
        <ele>0.707238</ele>
        <time>2026-09-02T14:42:22.938Z</time>
      </trkpt>
      <trkpt lat="53.233039" lon="6.536065">
        <ele>0.627294</ele>
        <time>2026-09-02T14:42:25.937Z</time>
      </trkpt>
      <trkpt lat="53.233073" lon="6.536234">
        <ele>0.554066</ele>
        <time>2026-09-02T14:42:28.936Z</time>
      </trkpt>
      <trkpt lat="53.233081" lon="6.536402">
        <ele>0.484847</ele>
        <time>2026-09-02T14:42:31.938Z</time>
      </trkpt>
      <trkpt lat="53.233124" lon="6.536565">
        <ele>0.411686</ele>
        <time>2026-09-02T14:42:34.936Z</time>
      </trkpt>
      <trkpt lat="53.233168" lon="6.536737">
        <ele>0.331181</ele>
        <time>2026-09-02T14:42:37.938Z</time>
      </trkpt>
      <trkpt lat="53.233207" lon="6.536925">
        <ele>0.244399</ele>
        <time>2026-09-02T14:42:40.938Z</time>
      </trkpt>
      <trkpt lat="53.233251" lon="6.537110">
        <ele>0.157574</ele>
        <time>2026-09-02T14:42:43.938Z</time>
      </trkpt>
      <trkpt lat="53.233278" lon="6.537301">
        <ele>0.071977</ele>
        <time>2026-09-02T14:42:46.941Z</time>
      </trkpt>
      <trkpt lat="53.233305" lon="6.537499">
        <ele>-0.016594</ele>
        <time>2026-09-02T14:42:49.936Z</time>
      </trkpt>
      <trkpt lat="53.233342" lon="6.537691">
        <ele>-0.104569</ele>
        <time>2026-09-02T14:42:52.945Z</time>
      </trkpt>
      <trkpt lat="53.233372" lon="6.537872">
        <ele>-0.186483</ele>
        <time>2026-09-02T14:42:55.937Z</time>
      </trkpt>
      <trkpt lat="53.233384" lon="6.538040">
        <ele>-0.260277</ele>
        <time>2026-09-02T14:42:58.937Z</time>
      </trkpt>
      <trkpt lat="53.233365" lon="6.538197">
        <ele>-0.330138</ele>
        <time>2026-09-02T14:43:01.937Z</time>
      </trkpt>
      <trkpt lat="53.233369" lon="6.538385">
        <ele>-0.412187</ele>
        <time>2026-09-02T14:43:04.937Z</time>
      </trkpt>
      <trkpt lat="53.233403" lon="6.538591">
        <ele>-0.505387</ele>
        <time>2026-09-02T14:43:07.937Z</time>
      </trkpt>
      <trkpt lat="53.233429" lon="6.538781">
        <ele>-0.590394</ele>
        <time>2026-09-02T14:43:10.937Z</time>
      </trkpt>
      <trkpt lat="53.233453" lon="6.538953">
        <ele>-0.667424</ele>
        <time>2026-09-02T14:43:13.937Z</time>
      </trkpt>
      <trkpt lat="53.233464" lon="6.539128">
        <ele>-0.744170</ele>
        <time>2026-09-02T14:43:17.937Z</time>
      </trkpt>
      <trkpt lat="53.233376" lon="6.539196">
        <ele>-0.814820</ele>
        <time>2026-09-02T14:43:23.945Z</time>
      </trkpt>
      <trkpt lat="53.233288" lon="6.539237">
        <ele>-0.881390</ele>
        <time>2026-09-02T14:43:26.944Z</time>
      </trkpt>
      <trkpt lat="53.233185" lon="6.539284">
        <ele>-0.949607</ele>
        <time>2026-09-02T14:43:30.939Z</time>
      </trkpt>
      <trkpt lat="53.233165" lon="6.539455">
        <ele>-1.008600</ele>
        <time>2026-09-02T14:43:39.936Z</time>
      </trkpt>
      <trkpt lat="53.233196" lon="6.539605">
        <ele>-1.062330</ele>
        <time>2026-09-02T14:43:42.943Z</time>
      </trkpt>
      <trkpt lat="53.233223" lon="6.539750">
        <ele>-1.113746</ele>
        <time>2026-09-02T14:43:46.943Z</time>
      </trkpt>
      <trkpt lat="53.233152" lon="6.539875">
        <ele>-1.172092</ele>
        <time>2026-09-02T14:43:54.936Z</time>
      </trkpt>
      <trkpt lat="53.233064" lon="6.539942">
        <ele>-1.226796</ele>
        <time>2026-09-02T14:43:57.946Z</time>
      </trkpt>
      <trkpt lat="53.232949" lon="6.539990">
        <ele>-1.293847</ele>
        <time>2026-09-02T14:44:00.934Z</time>
      </trkpt>
      <trkpt lat="53.232823" lon="6.540048">
        <ele>-1.367777</ele>
        <time>2026-09-02T14:44:03.945Z</time>
      </trkpt>
      <trkpt lat="53.232733" lon="6.540091">
        <ele>-1.420728</ele>
        <time>2026-09-02T14:44:05.946Z</time>
      </trkpt>
      <trkpt lat="53.232617" lon="6.540151">
        <ele>-1.489418</ele>
        <time>2026-09-02T14:44:08.943Z</time>
      </trkpt>
      <trkpt lat="53.232490" lon="6.540220">
        <ele>-1.564962</ele>
        <time>2026-09-02T14:44:11.946Z</time>
      </trkpt>
      <trkpt lat="53.232397" lon="6.540275">
        <ele>-1.620767</ele>
        <time>2026-09-02T14:44:13.944Z</time>
      </trkpt>
      <trkpt lat="53.232272" lon="6.540338">
        <ele>-1.694623</ele>
        <time>2026-09-02T14:44:16.943Z</time>
      </trkpt>
      <trkpt lat="53.232151" lon="6.540402">
        <ele>-1.766418</ele>
        <time>2026-09-02T14:44:19.934Z</time>
      </trkpt>
      <trkpt lat="53.232023" lon="6.540454">
        <ele>-1.840933</ele>
        <time>2026-09-02T14:44:22.935Z</time>
      </trkpt>
      <trkpt lat="53.231915" lon="6.540519">
        <ele>-1.905869</ele>
        <time>2026-09-02T14:44:25.943Z</time>
      </trkpt>
      <trkpt lat="53.231801" lon="6.540575">
        <ele>-1.839828</ele>
        <time>2026-09-02T14:44:28.935Z</time>
      </trkpt>
      <trkpt lat="53.231692" lon="6.540627">
        <ele>-1.686578</ele>
        <time>2026-09-02T14:44:31.939Z</time>
      </trkpt>
      <trkpt lat="53.231614" lon="6.540717">
        <ele>-1.558422</ele>
        <time>2026-09-02T14:44:35.938Z</time>
      </trkpt>
      <trkpt lat="53.231534" lon="6.540809">
        <ele>-1.427121</ele>
        <time>2026-09-02T14:44:37.938Z</time>
      </trkpt>
      <trkpt lat="53.231436" lon="6.540893">
        <ele>-1.278212</ele>
        <time>2026-09-02T14:44:39.936Z</time>
      </trkpt>
      <trkpt lat="53.231350" lon="6.540962">
        <ele>-1.149234</ele>
        <time>2026-09-02T14:44:41.936Z</time>
      </trkpt>
      <trkpt lat="53.231236" lon="6.541056">
        <ele>-0.977365</ele>
        <time>2026-09-02T14:44:44.937Z</time>
      </trkpt>
      <trkpt lat="53.231124" lon="6.541166">
        <ele>-0.801722</ele>
        <time>2026-09-02T14:44:47.940Z</time>
      </trkpt>
      <trkpt lat="53.231021" lon="6.541285">
        <ele>-0.632418</ele>
        <time>2026-09-02T14:44:50.937Z</time>
      </trkpt>
      <trkpt lat="53.231014" lon="6.541134">
        <ele>-0.509856</ele>
        <time>2026-09-02T14:45:05.939Z</time>
      </trkpt>
      <trkpt lat="53.230989" lon="6.540972">
        <ele>-0.374472</ele>
        <time>2026-09-02T14:45:10.938Z</time>
      </trkpt>
      <trkpt lat="53.230940" lon="6.540805">
        <ele>-0.223965</ele>
        <time>2026-09-02T14:45:15.936Z</time>
      </trkpt>
      <trkpt lat="53.230949" lon="6.540647">
        <ele>-0.095526</ele>
        <time>2026-09-02T14:45:19.940Z</time>
      </trkpt>
      <trkpt lat="53.230940" lon="6.540480">
        <ele>0.040164</ele>
        <time>2026-09-02T14:45:27.939Z</time>
      </trkpt>
      <trkpt lat="53.230830" lon="6.540457">
        <ele>0.190036</ele>
        <time>2026-09-02T14:45:30.933Z</time>
      </trkpt>
      <trkpt lat="53.230730" lon="6.540502">
        <ele>0.330047</ele>
        <time>2026-09-02T14:45:33.939Z</time>
      </trkpt>
      <trkpt lat="53.230616" lon="6.540542">
        <ele>0.487528</ele>
        <time>2026-09-02T14:45:36.936Z</time>
      </trkpt>
      <trkpt lat="53.230513" lon="6.540599">
        <ele>0.616036</ele>
        <time>2026-09-02T14:45:39.938Z</time>
      </trkpt>
      <trkpt lat="53.230401" lon="6.540662">
        <ele>0.754502</ele>
        <time>2026-09-02T14:45:42.941Z</time>
      </trkpt>
      <trkpt lat="53.230281" lon="6.540719">
        <ele>0.900676</ele>
        <time>2026-09-02T14:45:45.937Z</time>
      </trkpt>
      <trkpt lat="53.230169" lon="6.540779">
        <ele>1.038486</ele>
        <time>2026-09-02T14:45:48.939Z</time>
      </trkpt>
      <trkpt lat="53.230062" lon="6.540831">
        <ele>1.169053</ele>
        <time>2026-09-02T14:45:51.934Z</time>
      </trkpt>
      <trkpt lat="53.229970" lon="6.540897">
        <ele>1.286366</ele>
        <time>2026-09-02T14:45:54.936Z</time>
      </trkpt>
      <trkpt lat="53.229949" lon="6.541084">
        <ele>1.419810</ele>
        <time>2026-09-02T14:45:58.937Z</time>
      </trkpt>
      <trkpt lat="53.229982" lon="6.541242">
        <ele>1.537178</ele>
        <time>2026-09-02T14:46:01.935Z</time>
      </trkpt>
      <trkpt lat="53.230033" lon="6.541391">
        <ele>1.657560</ele>
        <time>2026-09-02T14:46:04.936Z</time>
      </trkpt>
      <trkpt lat="53.230060" lon="6.541546">
        <ele>1.770782</ele>
        <time>2026-09-02T14:46:07.940Z</time>
      </trkpt>
      <trkpt lat="53.230088" lon="6.541729">
        <ele>1.903259</ele>
        <time>2026-09-02T14:46:10.936Z</time>
      </trkpt>
      <trkpt lat="53.230116" lon="6.541888">
        <ele>2.019502</ele>
        <time>2026-09-02T14:46:13.936Z</time>
      </trkpt>
      <trkpt lat="53.230047" lon="6.542019">
        <ele>2.141886</ele>
        <time>2026-09-02T14:46:19.936Z</time>
      </trkpt>
      <trkpt lat="53.229936" lon="6.542053">
        <ele>2.274110</ele>
        <time>2026-09-02T14:46:23.937Z</time>
      </trkpt>
      <trkpt lat="53.229839" lon="6.542077">
        <ele>2.389002</ele>
        <time>2026-09-02T14:46:27.942Z</time>
      </trkpt>
      <trkpt lat="53.229737" lon="6.542146">
        <ele>2.517940</ele>
        <time>2026-09-02T14:46:31.939Z</time>
      </trkpt>
      <trkpt lat="53.229645" lon="6.542163">
        <ele>2.582757</ele>
        <time>2026-09-02T14:46:35.939Z</time>
      </trkpt>
      <trkpt lat="53.229622" lon="6.542010">
        <ele>2.464809</ele>
        <time>2026-09-02T14:46:40.943Z</time>
      </trkpt>
      <trkpt lat="53.229602" lon="6.541838">
        <ele>2.333803</ele>
        <time>2026-09-02T14:46:45.951Z</time>
      </trkpt>
      <trkpt lat="53.229583" lon="6.541684">
        <ele>2.216238</ele>
        <time>2026-09-02T14:46:50.936Z</time>
      </trkpt>
      <trkpt lat="53.229495" lon="6.541626">
        <ele>2.098077</ele>
        <time>2026-09-02T14:46:54.937Z</time>
      </trkpt>
      <trkpt lat="53.229394" lon="6.541540">
        <ele>1.956482</ele>
        <time>2026-09-02T14:46:58.940Z</time>
      </trkpt>
      <trkpt lat="53.229285" lon="6.541588">
        <ele>1.815685</ele>
        <time>2026-09-02T14:47:01.938Z</time>
      </trkpt>
      <trkpt lat="53.229170" lon="6.541643">
        <ele>1.666275</ele>
        <time>2026-09-02T14:47:04.937Z</time>
      </trkpt>
      <trkpt lat="53.229065" lon="6.541696">
        <ele>1.529269</ele>
        <time>2026-09-02T14:47:07.943Z</time>
      </trkpt>
      <trkpt lat="53.228980" lon="6.541748">
        <ele>1.416205</ele>
        <time>2026-09-02T14:47:10.937Z</time>
      </trkpt>
      <trkpt lat="53.228888" lon="6.541792">
        <ele>1.296677</ele>
        <time>2026-09-02T14:47:13.939Z</time>
      </trkpt>
      <trkpt lat="53.228793" lon="6.541851">
        <ele>1.170083</ele>
        <time>2026-09-02T14:47:16.931Z</time>
      </trkpt>
      <trkpt lat="53.228695" lon="6.541905">
        <ele>1.041189</ele>
        <time>2026-09-02T14:47:20.939Z</time>
      </trkpt>
      <trkpt lat="53.228603" lon="6.541929">
        <ele>0.924885</ele>
        <time>2026-09-02T14:47:26.943Z</time>
      </trkpt>
      <trkpt lat="53.228502" lon="6.541995">
        <ele>0.789423</ele>
        <time>2026-09-02T14:47:30.944Z</time>
      </trkpt>
      <trkpt lat="53.228417" lon="6.542049">
        <ele>0.675836</ele>
        <time>2026-09-02T14:47:33.943Z</time>
      </trkpt>
      <trkpt lat="53.228322" lon="6.542104">
        <ele>0.550253</ele>
        <time>2026-09-02T14:47:36.945Z</time>
      </trkpt>
      <trkpt lat="53.228225" lon="6.542157">
        <ele>0.422779</ele>
        <time>2026-09-02T14:47:39.936Z</time>
      </trkpt>
      <trkpt lat="53.228139" lon="6.542206">
        <ele>0.356774</ele>
        <time>2026-09-02T14:47:42.943Z</time>
      </trkpt>
      <trkpt lat="53.228042" lon="6.542258">
        <ele>0.351837</ele>
        <time>2026-09-02T14:47:45.943Z</time>
      </trkpt>
      <trkpt lat="53.227964" lon="6.542345">
        <ele>0.347292</ele>
        <time>2026-09-02T14:47:49.943Z</time>
      </trkpt>
      <trkpt lat="53.227992" lon="6.542509">
        <ele>0.342345</ele>
        <time>2026-09-02T14:47:55.935Z</time>
      </trkpt>
      <trkpt lat="53.228026" lon="6.542652">
        <ele>0.337881</ele>
        <time>2026-09-02T14:47:59.944Z</time>
      </trkpt>
      <trkpt lat="53.228057" lon="6.542804">
        <ele>0.333222</ele>
        <time>2026-09-02T14:48:02.944Z</time>
      </trkpt>
      <trkpt lat="53.228091" lon="6.542963">
        <ele>0.328324</ele>
        <time>2026-09-02T14:48:05.943Z</time>
      </trkpt>
      <trkpt lat="53.228126" lon="6.543110">
        <ele>0.323735</ele>
        <time>2026-09-02T14:48:08.937Z</time>
      </trkpt>
      <trkpt lat="53.228077" lon="6.543263">
        <ele>0.318701</ele>
        <time>2026-09-02T14:48:14.943Z</time>
      </trkpt>
      <trkpt lat="53.227991" lon="6.543333">
        <ele>0.314065</ele>
        <time>2026-09-02T14:48:17.943Z</time>
      </trkpt>
      <trkpt lat="53.227907" lon="6.543403">
        <ele>0.309516</ele>
        <time>2026-09-02T14:48:20.938Z</time>
      </trkpt>
      <trkpt lat="53.227802" lon="6.543500">
        <ele>0.303701</ele>
        <time>2026-09-02T14:48:24.937Z</time>
      </trkpt>
      <trkpt lat="53.227712" lon="6.543570">
        <ele>0.298890</ele>
        <time>2026-09-02T14:48:27.936Z</time>
      </trkpt>
      <trkpt lat="53.227609" lon="6.543646">
        <ele>0.293433</ele>
        <time>2026-09-02T14:48:30.937Z</time>
      </trkpt>
      <trkpt lat="53.227518" lon="6.543730">
        <ele>0.288394</ele>
        <time>2026-09-02T14:48:33.937Z</time>
      </trkpt>
      <trkpt lat="53.227431" lon="6.543800">
        <ele>0.283715</ele>
        <time>2026-09-02T14:48:36.937Z</time>
      </trkpt>
      <trkpt lat="53.227330" lon="6.543897">
        <ele>0.278069</ele>
        <time>2026-09-02T14:48:40.936Z</time>
      </trkpt>
      <trkpt lat="53.227240" lon="6.543988">
        <ele>0.272971</ele>
        <time>2026-09-02T14:48:44.935Z</time>
      </trkpt>
      <trkpt lat="53.227155" lon="6.543912">
        <ele>0.278326</ele>
        <time>2026-09-02T14:48:49.943Z</time>
      </trkpt>
      <trkpt lat="53.227098" lon="6.543744">
        <ele>0.290127</ele>
        <time>2026-09-02T14:48:53.932Z</time>
      </trkpt>
      <trkpt lat="53.227054" lon="6.543609">
        <ele>0.299520</ele>
        <time>2026-09-02T14:48:57.942Z</time>
      </trkpt>
      <trkpt lat="53.226978" lon="6.543524">
        <ele>0.308857</ele>
        <time>2026-09-02T14:49:01.938Z</time>
      </trkpt>
      <trkpt lat="53.226890" lon="6.543586">
        <ele>0.318607</ele>
        <time>2026-09-02T14:49:04.935Z</time>
      </trkpt>
      <trkpt lat="53.226804" lon="6.543662">
        <ele>0.328539</ele>
        <time>2026-09-02T14:49:07.949Z</time>
      </trkpt>
      <trkpt lat="53.226719" lon="6.543760">
        <ele>0.339082</ele>
        <time>2026-09-02T14:49:10.943Z</time>
      </trkpt>
      <trkpt lat="53.226641" lon="6.543848">
        <ele>0.348690</ele>
        <time>2026-09-02T14:49:13.935Z</time>
      </trkpt>
      <trkpt lat="53.226549" lon="6.543973">
        <ele>0.360796</ele>
        <time>2026-09-02T14:49:17.934Z</time>
      </trkpt>
      <trkpt lat="53.226495" lon="6.544116">
        <ele>0.371129</ele>
        <time>2026-09-02T14:49:21.943Z</time>
      </trkpt>
      <trkpt lat="53.226550" lon="6.544303">
        <ele>0.383862</ele>
        <time>2026-09-02T14:49:25.943Z</time>
      </trkpt>
      <trkpt lat="53.226599" lon="6.544455">
        <ele>0.394412</ele>
        <time>2026-09-02T14:49:28.936Z</time>
      </trkpt>
      <trkpt lat="53.226665" lon="6.544601">
        <ele>0.405592</ele>
        <time>2026-09-02T14:49:34.943Z</time>
      </trkpt>
      <trkpt lat="53.226709" lon="6.544761">
        <ele>0.416353</ele>
        <time>2026-09-02T14:49:43.947Z</time>
      </trkpt>
      <trkpt lat="53.226745" lon="6.544904">
        <ele>0.425833</ele>
        <time>2026-09-02T14:49:47.944Z</time>
      </trkpt>
      <trkpt lat="53.226793" lon="6.545033">
        <ele>0.435115</ele>
        <time>2026-09-02T14:49:50.939Z</time>
      </trkpt>
      <trkpt lat="53.226847" lon="6.545193">
        <ele>0.446340</ele>
        <time>2026-09-02T14:49:54.935Z</time>
      </trkpt>
      <trkpt lat="53.226878" lon="6.545349">
        <ele>0.462200</ele>
        <time>2026-09-02T14:49:58.943Z</time>
      </trkpt>
      <trkpt lat="53.226936" lon="6.545486">
        <ele>0.520264</ele>
        <time>2026-09-02T14:50:02.937Z</time>
      </trkpt>
      <trkpt lat="53.227022" lon="6.545593">
        <ele>0.582249</ele>
        <time>2026-09-02T14:50:06.943Z</time>
      </trkpt>
      <trkpt lat="53.227066" lon="6.545756">
        <ele>0.644122</ele>
        <time>2026-09-02T14:50:09.937Z</time>
      </trkpt>
      <trkpt lat="53.227117" lon="6.545918">
        <ele>0.707459</ele>
        <time>2026-09-02T14:50:12.938Z</time>
      </trkpt>
      <trkpt lat="53.227166" lon="6.546095">
        <ele>0.774939</ele>
        <time>2026-09-02T14:50:15.938Z</time>
      </trkpt>
      <trkpt lat="53.227213" lon="6.546280">
        <ele>0.844482</ele>
        <time>2026-09-02T14:50:18.938Z</time>
      </trkpt>
      <trkpt lat="53.227243" lon="6.546462">
        <ele>0.909805</ele>
        <time>2026-09-02T14:50:21.950Z</time>
      </trkpt>
      <trkpt lat="53.227313" lon="6.546587">
        <ele>0.969034</ele>
        <time>2026-09-02T14:50:24.939Z</time>
      </trkpt>
      <trkpt lat="53.227354" lon="6.546756">
        <ele>1.032134</ele>
        <time>2026-09-02T14:50:27.947Z</time>
      </trkpt>
      <trkpt lat="53.227415" lon="6.546932">
        <ele>1.102507</ele>
        <time>2026-09-02T14:50:30.936Z</time>
      </trkpt>
      <trkpt lat="53.227472" lon="6.547104">
        <ele>1.170536</ele>
        <time>2026-09-02T14:50:33.937Z</time>
      </trkpt>
      <trkpt lat="53.227526" lon="6.547265">
        <ele>1.234396</ele>
        <time>2026-09-02T14:50:36.936Z</time>
      </trkpt>
      <trkpt lat="53.227575" lon="6.547412">
        <ele>1.292617</ele>
        <time>2026-09-02T14:50:39.935Z</time>
      </trkpt>
      <trkpt lat="53.227637" lon="6.547575">
        <ele>1.359443</ele>
        <time>2026-09-02T14:50:42.937Z</time>
      </trkpt>
      <trkpt lat="53.227678" lon="6.547711">
        <ele>1.412134</ele>
        <time>2026-09-02T14:50:45.936Z</time>
      </trkpt>
      <trkpt lat="53.227730" lon="6.547875">
        <ele>1.476352</ele>
        <time>2026-09-02T14:50:54.943Z</time>
      </trkpt>
      <trkpt lat="53.227840" lon="6.547917">
        <ele>1.490860</ele>
        <time>2026-09-02T14:50:59.935Z</time>
      </trkpt>
      <trkpt lat="53.227941" lon="6.547830">
        <ele>1.485305</ele>
        <time>2026-09-02T14:51:03.943Z</time>
      </trkpt>
      <trkpt lat="53.227877" lon="6.547963">
        <ele>1.480311</ele>
        <time>2026-09-02T14:51:10.932Z</time>
      </trkpt>
      <trkpt lat="53.227877" lon="6.548126">
        <ele>1.475541</ele>
        <time>2026-09-02T14:51:15.933Z</time>
      </trkpt>
      <trkpt lat="53.227914" lon="6.548264">
        <ele>1.471115</ele>
        <time>2026-09-02T14:51:18.934Z</time>
      </trkpt>
      <trkpt lat="53.227968" lon="6.548397">
        <ele>1.466412</ele>
        <time>2026-09-02T14:51:21.943Z</time>
      </trkpt>
      <trkpt lat="53.228047" lon="6.548489">
        <ele>1.461704</ele>
        <time>2026-09-02T14:51:24.933Z</time>
      </trkpt>
      <trkpt lat="53.228123" lon="6.548589">
        <ele>1.456975</ele>
        <time>2026-09-02T14:51:27.943Z</time>
      </trkpt>
      <trkpt lat="53.228185" lon="6.548703">
        <ele>1.452467</ele>
        <time>2026-09-02T14:51:30.936Z</time>
      </trkpt>
      <trkpt lat="53.228249" lon="6.548857">
        <ele>1.446981</ele>
        <time>2026-09-02T14:51:34.936Z</time>
      </trkpt>
      <trkpt lat="53.228295" lon="6.548998">
        <ele>1.442281</ele>
        <time>2026-09-02T14:51:37.936Z</time>
      </trkpt>
      <trkpt lat="53.228331" lon="6.549151">
        <ele>1.437470</ele>
        <time>2026-09-02T14:51:40.936Z</time>
      </trkpt>
      <trkpt lat="53.228352" lon="6.549300">
        <ele>1.432990</ele>
        <time>2026-09-02T14:51:43.937Z</time>
      </trkpt>
      <trkpt lat="53.228322" lon="6.549474">
        <ele>1.427691</ele>
        <time>2026-09-02T14:51:52.934Z</time>
      </trkpt>
      <trkpt lat="53.228230" lon="6.549583">
        <ele>1.422177</ele>
        <time>2026-09-02T14:51:56.935Z</time>
      </trkpt>
      <trkpt lat="53.228146" lon="6.549664">
        <ele>1.417435</ele>
        <time>2026-09-02T14:51:59.935Z</time>
      </trkpt>
      <trkpt lat="53.228054" lon="6.549777">
        <ele>1.411853</ele>
        <time>2026-09-02T14:52:02.931Z</time>
      </trkpt>
      <trkpt lat="53.227949" lon="6.549903">
        <ele>1.431805</ele>
        <time>2026-09-02T14:52:05.931Z</time>
      </trkpt>
      <trkpt lat="53.227875" lon="6.549995">
        <ele>1.514972</ele>
        <time>2026-09-02T14:52:07.931Z</time>
      </trkpt>
      <trkpt lat="53.227766" lon="6.550120">
        <ele>1.634174</ele>
        <time>2026-09-02T14:52:10.932Z</time>
      </trkpt>
      <trkpt lat="53.227680" lon="6.550268">
        <ele>1.745496</ele>
        <time>2026-09-02T14:52:13.943Z</time>
      </trkpt>
      <trkpt lat="53.227682" lon="6.550449">
        <ele>1.843202</ele>
        <time>2026-09-02T14:52:16.943Z</time>
      </trkpt>
      <trkpt lat="53.227719" lon="6.550611">
        <ele>1.936785</ele>
        <time>2026-09-02T14:52:19.947Z</time>
      </trkpt>
      <trkpt lat="53.227760" lon="6.550791">
        <ele>2.040729</ele>
        <time>2026-09-02T14:52:22.931Z</time>
      </trkpt>
      <trkpt lat="53.227793" lon="6.550980">
        <ele>2.146987</ele>
        <time>2026-09-02T14:52:25.943Z</time>
      </trkpt>
      <trkpt lat="53.227837" lon="6.551163">
        <ele>2.253425</ele>
        <time>2026-09-02T14:52:28.932Z</time>
      </trkpt>
      <trkpt lat="53.227876" lon="6.551331">
        <ele>2.350676</ele>
        <time>2026-09-02T14:52:31.942Z</time>
      </trkpt>
      <trkpt lat="53.227913" lon="6.551508">
        <ele>2.451864</ele>
        <time>2026-09-02T14:52:34.937Z</time>
      </trkpt>
      <trkpt lat="53.227950" lon="6.551694">
        <ele>2.557649</ele>
        <time>2026-09-02T14:52:37.951Z</time>
      </trkpt>
      <trkpt lat="53.227991" lon="6.551872">
        <ele>2.660585</ele>
        <time>2026-09-02T14:52:40.936Z</time>
      </trkpt>
      <trkpt lat="53.228027" lon="6.552032">
        <ele>2.752838</ele>
        <time>2026-09-02T14:52:43.936Z</time>
      </trkpt>
      <trkpt lat="53.228059" lon="6.552208">
        <ele>2.852113</ele>
        <time>2026-09-02T14:52:46.936Z</time>
      </trkpt>
      <trkpt lat="53.228095" lon="6.552395">
        <ele>2.958131</ele>
        <time>2026-09-02T14:52:49.935Z</time>
      </trkpt>
      <trkpt lat="53.228135" lon="6.552589">
        <ele>3.011326</ele>
        <time>2026-09-02T14:52:52.938Z</time>
      </trkpt>
      <trkpt lat="53.228181" lon="6.552761">
        <ele>2.968024</ele>
        <time>2026-09-02T14:52:55.937Z</time>
      </trkpt>
      <trkpt lat="53.228214" lon="6.552923">
        <ele>2.928690</ele>
        <time>2026-09-02T14:52:58.936Z</time>
      </trkpt>
      <trkpt lat="53.228189" lon="6.553104">
        <ele>2.885992</ele>
        <time>2026-09-02T14:53:02.934Z</time>
      </trkpt>
      <trkpt lat="53.228163" lon="6.553257">
        <ele>2.849433</ele>
        <time>2026-09-02T14:53:05.932Z</time>
      </trkpt>
      <trkpt lat="53.228242" lon="6.553397">
        <ele>2.805209</ele>
        <time>2026-09-02T14:53:08.943Z</time>
      </trkpt>
      <trkpt lat="53.228330" lon="6.553534">
        <ele>2.759020</ele>
        <time>2026-09-02T14:53:11.931Z</time>
      </trkpt>
      <trkpt lat="53.228416" lon="6.553665">
        <ele>2.714330</ele>
        <time>2026-09-02T14:53:14.943Z</time>
      </trkpt>
      <trkpt lat="53.228507" lon="6.553796">
        <ele>2.668204</ele>
        <time>2026-09-02T14:53:17.944Z</time>
      </trkpt>
      <trkpt lat="53.228584" lon="6.553923">
        <ele>2.626655</ele>
        <time>2026-09-02T14:53:20.937Z</time>
      </trkpt>
      <trkpt lat="53.228560" lon="6.554104">
        <ele>2.584042</ele>
        <time>2026-09-02T14:53:24.936Z</time>
      </trkpt>
      <trkpt lat="53.228485" lon="6.554192">
        <ele>2.548849</ele>
        <time>2026-09-02T14:53:27.937Z</time>
      </trkpt>
      <trkpt lat="53.228395" lon="6.554299">
        <ele>2.506433</ele>
        <time>2026-09-02T14:53:31.936Z</time>
      </trkpt>
      <trkpt lat="53.228294" lon="6.554340">
        <ele>2.466522</ele>
        <time>2026-09-02T14:53:35.934Z</time>
      </trkpt>
      <trkpt lat="53.228221" lon="6.554239">
        <ele>2.430126</ele>
        <time>2026-09-02T14:53:38.936Z</time>
      </trkpt>
      <trkpt lat="53.228138" lon="6.554112">
        <ele>2.386907</ele>
        <time>2026-09-02T14:53:41.943Z</time>
      </trkpt>
      <trkpt lat="53.228049" lon="6.553984">
        <ele>2.341812</ele>
        <time>2026-09-02T14:53:44.933Z</time>
      </trkpt>
      <trkpt lat="53.227979" lon="6.553871">
        <ele>2.362644</ele>
        <time>2026-09-02T14:53:47.936Z</time>
      </trkpt>
      <trkpt lat="53.227901" lon="6.553746">
        <ele>2.393388</ele>
        <time>2026-09-02T14:53:50.935Z</time>
      </trkpt>
      <trkpt lat="53.227817" lon="6.553621">
        <ele>2.425385</ele>
        <time>2026-09-02T14:53:53.935Z</time>
      </trkpt>
      <trkpt lat="53.227742" lon="6.553503">
        <ele>2.454689</ele>
        <time>2026-09-02T14:53:56.935Z</time>
      </trkpt>
      <trkpt lat="53.227662" lon="6.553385">
        <ele>2.485044</ele>
        <time>2026-09-02T14:53:59.935Z</time>
      </trkpt>
      <trkpt lat="53.227590" lon="6.553281">
        <ele>2.512117</ele>
        <time>2026-09-02T14:54:02.934Z</time>
      </trkpt>
      <trkpt lat="53.227495" lon="6.553278">
        <ele>2.539142</ele>
        <time>2026-09-02T14:54:07.943Z</time>
      </trkpt>
      <trkpt lat="53.227431" lon="6.553390">
        <ele>2.565506</ele>
        <time>2026-09-02T14:54:11.935Z</time>
      </trkpt>
      <trkpt lat="53.227332" lon="6.553453">
        <ele>2.595638</ele>
        <time>2026-09-02T14:54:16.937Z</time>
      </trkpt>
      <trkpt lat="53.227247" lon="6.553528">
        <ele>2.622980</ele>
        <time>2026-09-02T14:54:20.937Z</time>
      </trkpt>
      <trkpt lat="53.227139" lon="6.553618">
        <ele>2.657308</ele>
        <time>2026-09-02T14:54:24.936Z</time>
      </trkpt>
      <trkpt lat="53.227056" lon="6.553687">
        <ele>2.683678</ele>
        <time>2026-09-02T14:54:27.939Z</time>
      </trkpt>
      <trkpt lat="53.226966" lon="6.553764">
        <ele>2.712438</ele>
        <time>2026-09-02T14:54:31.942Z</time>
      </trkpt>
      <trkpt lat="53.226865" lon="6.553805">
        <ele>2.742002</ele>
        <time>2026-09-02T14:54:34.938Z</time>
      </trkpt>
      <trkpt lat="53.226769" lon="6.553874">
        <ele>2.771727</ele>
        <time>2026-09-02T14:54:37.943Z</time>
      </trkpt>
      <trkpt lat="53.226688" lon="6.553943">
        <ele>2.797588</ele>
        <time>2026-09-02T14:54:40.943Z</time>
      </trkpt>
      <trkpt lat="53.226600" lon="6.553998">
        <ele>2.824313</ele>
        <time>2026-09-02T14:54:43.936Z</time>
      </trkpt>
      <trkpt lat="53.226514" lon="6.554066">
        <ele>2.843364</ele>
        <time>2026-09-02T14:54:46.943Z</time>
      </trkpt>
      <trkpt lat="53.226431" lon="6.554160">
        <ele>2.752776</ele>
        <time>2026-09-02T14:54:49.934Z</time>
      </trkpt>
      <trkpt lat="53.226361" lon="6.554279">
        <ele>2.662552</ele>
        <time>2026-09-02T14:54:52.942Z</time>
      </trkpt>
      <trkpt lat="53.226307" lon="6.554405">
        <ele>2.578749</ele>
        <time>2026-09-02T14:54:55.934Z</time>
      </trkpt>
      <trkpt lat="53.226255" lon="6.554528">
        <ele>2.497316</ele>
        <time>2026-09-02T14:54:58.942Z</time>
      </trkpt>
      <trkpt lat="53.226150" lon="6.554533">
        <ele>2.402424</ele>
        <time>2026-09-02T14:55:02.935Z</time>
      </trkpt>
      <trkpt lat="53.226112" lon="6.554368">
        <ele>2.306815</ele>
        <time>2026-09-02T14:55:05.943Z</time>
      </trkpt>
      <trkpt lat="53.226085" lon="6.554206">
        <ele>2.215873</ele>
        <time>2026-09-02T14:55:08.935Z</time>
      </trkpt>
      <trkpt lat="53.226050" lon="6.554060">
        <ele>2.130820</ele>
        <time>2026-09-02T14:55:11.943Z</time>
      </trkpt>
      <trkpt lat="53.225961" lon="6.553971">
        <ele>2.037114</ele>
        <time>2026-09-02T14:55:14.932Z</time>
      </trkpt>
      <trkpt lat="53.225874" lon="6.553896">
        <ele>1.948672</ele>
        <time>2026-09-02T14:55:17.943Z</time>
      </trkpt>
      <trkpt lat="53.225787" lon="6.553824">
        <ele>1.860962</ele>
        <time>2026-09-02T14:55:20.943Z</time>
      </trkpt>
      <trkpt lat="53.225692" lon="6.553785">
        <ele>1.772589</ele>
        <time>2026-09-02T14:55:23.933Z</time>
      </trkpt>
      <trkpt lat="53.225595" lon="6.553831">
        <ele>1.681499</ele>
        <time>2026-09-02T14:55:26.938Z</time>
      </trkpt>
      <trkpt lat="53.225496" lon="6.553876">
        <ele>1.588814</ele>
        <time>2026-09-02T14:55:29.932Z</time>
      </trkpt>
      <trkpt lat="53.225383" lon="6.553922">
        <ele>1.483746</ele>
        <time>2026-09-02T14:55:32.942Z</time>
      </trkpt>
      <trkpt lat="53.225277" lon="6.553982">
        <ele>1.382641</ele>
        <time>2026-09-02T14:55:35.934Z</time>
      </trkpt>
      <trkpt lat="53.225171" lon="6.554019">
        <ele>1.284816</ele>
        <time>2026-09-02T14:55:38.934Z</time>
      </trkpt>
      <trkpt lat="53.225071" lon="6.554049">
        <ele>1.233053</ele>
        <time>2026-09-02T14:55:41.937Z</time>
      </trkpt>
      <trkpt lat="53.224960" lon="6.554095">
        <ele>1.260613</ele>
        <time>2026-09-02T14:55:44.934Z</time>
      </trkpt>
      <trkpt lat="53.224853" lon="6.554144">
        <ele>1.287349</ele>
        <time>2026-09-02T14:55:47.932Z</time>
      </trkpt>
      <trkpt lat="53.224747" lon="6.554182">
        <ele>1.313474</ele>
        <time>2026-09-02T14:55:50.936Z</time>
      </trkpt>
      <trkpt lat="53.224652" lon="6.554227">
        <ele>1.337270</ele>
        <time>2026-09-02T14:55:53.936Z</time>
      </trkpt>
      <trkpt lat="53.224555" lon="6.554264">
        <ele>1.361247</ele>
        <time>2026-09-02T14:55:56.935Z</time>
      </trkpt>
      <trkpt lat="53.224464" lon="6.554316">
        <ele>1.384424</ele>
        <time>2026-09-02T14:55:59.941Z</time>
      </trkpt>
      <trkpt lat="53.224376" lon="6.554351">
        <ele>1.406223</ele>
        <time>2026-09-02T14:56:02.933Z</time>
      </trkpt>
      <trkpt lat="53.224265" lon="6.554401">
        <ele>1.433927</ele>
        <time>2026-09-02T14:56:06.936Z</time>
      </trkpt>
      <trkpt lat="53.224162" lon="6.554428">
        <ele>1.459051</ele>
        <time>2026-09-02T14:56:10.940Z</time>
      </trkpt>
      <trkpt lat="53.224055" lon="6.554370">
        <ele>1.486160</ele>
        <time>2026-09-02T14:56:14.941Z</time>
      </trkpt>
      <trkpt lat="53.223997" lon="6.554232">
        <ele>1.510486</ele>
        <time>2026-09-02T14:56:18.940Z</time>
      </trkpt>
      <trkpt lat="53.223913" lon="6.554104">
        <ele>1.537886</ele>
        <time>2026-09-02T14:56:24.940Z</time>
      </trkpt>
      <trkpt lat="53.223849" lon="6.553958">
        <ele>1.563992</ele>
        <time>2026-09-02T14:56:28.934Z</time>
      </trkpt>
      <trkpt lat="53.223794" lon="6.553815">
        <ele>1.588513</ele>
        <time>2026-09-02T14:56:32.935Z</time>
      </trkpt>
      <trkpt lat="53.223739" lon="6.553663">
        <ele>1.614137</ele>
        <time>2026-09-02T14:56:38.949Z</time>
      </trkpt>
      <trkpt lat="53.223676" lon="6.553544">
        <ele>1.637055</ele>
        <time>2026-09-02T14:56:45.933Z</time>
      </trkpt>
      <trkpt lat="53.223622" lon="6.553420">
        <ele>1.657593</ele>
        <time>2026-09-02T14:56:53.933Z</time>
      </trkpt>
      <trkpt lat="53.223538" lon="6.553612">
        <ele>1.643210</ele>
        <time>2026-09-02T15:34:23.939Z</time>
      </trkpt>
      <trkpt lat="53.223461" lon="6.553730">
        <ele>1.632653</ele>
        <time>2026-09-02T15:34:27.939Z</time>
      </trkpt>
      <trkpt lat="53.223446" lon="6.553907">
        <ele>1.621841</ele>
        <time>2026-09-02T15:34:32.933Z</time>
      </trkpt>
      <trkpt lat="53.223503" lon="6.554037">
        <ele>1.612095</ele>
        <time>2026-09-02T15:34:36.935Z</time>
      </trkpt>
      <trkpt lat="53.223577" lon="6.554158">
        <ele>1.601633</ele>
        <time>2026-09-02T15:34:40.929Z</time>
      </trkpt>
      <trkpt lat="53.223644" lon="6.554293">
        <ele>1.591028</ele>
        <time>2026-09-02T15:34:45.935Z</time>
      </trkpt>
      <trkpt lat="53.223708" lon="6.554403">
        <ele>1.581750</ele>
        <time>2026-09-02T15:34:49.930Z</time>
      </trkpt>
      <trkpt lat="53.223785" lon="6.554522">
        <ele>1.571153</ele>
        <time>2026-09-02T15:34:54.938Z</time>
      </trkpt>
      <trkpt lat="53.223859" lon="6.554644">
        <ele>1.560649</ele>
        <time>2026-09-02T15:34:59.938Z</time>
      </trkpt>
      <trkpt lat="53.223921" lon="6.554757">
        <ele>1.551378</ele>
        <time>2026-09-02T15:35:04.931Z</time>
      </trkpt>
      <trkpt lat="53.223996" lon="6.554874">
        <ele>1.541011</ele>
        <time>2026-09-02T15:35:09.932Z</time>
      </trkpt>
      <trkpt lat="53.224084" lon="6.554910">
        <ele>1.531858</ele>
        <time>2026-09-02T15:35:13.938Z</time>
      </trkpt>
      <trkpt lat="53.224179" lon="6.554917">
        <ele>1.522251</ele>
        <time>2026-09-02T15:35:17.938Z</time>
      </trkpt>
      <trkpt lat="53.224286" lon="6.554931">
        <ele>1.511408</ele>
        <time>2026-09-02T15:35:22.938Z</time>
      </trkpt>
      <trkpt lat="53.224388" lon="6.554913">
        <ele>1.501047</ele>
        <time>2026-09-02T15:35:27.930Z</time>
      </trkpt>
      <trkpt lat="53.224485" lon="6.554876">
        <ele>1.490995</ele>
        <time>2026-09-02T15:35:32.934Z</time>
      </trkpt>
      <trkpt lat="53.224586" lon="6.554823">
        <ele>1.480300</ele>
        <time>2026-09-02T15:35:38.938Z</time>
      </trkpt>
      <trkpt lat="53.224684" lon="6.554764">
        <ele>1.481568</ele>
        <time>2026-09-02T15:35:44.938Z</time>
      </trkpt>
      <trkpt lat="53.224782" lon="6.554707">
        <ele>1.489878</ele>
        <time>2026-09-02T15:35:53.938Z</time>
      </trkpt>
      <trkpt lat="53.224879" lon="6.554649">
        <ele>1.498127</ele>
        <time>2026-09-02T15:36:00.931Z</time>
      </trkpt>
      <trkpt lat="53.224974" lon="6.554604">
        <ele>1.506034</ele>
        <time>2026-09-02T15:36:06.938Z</time>
      </trkpt>
      <trkpt lat="53.225062" lon="6.554574">
        <ele>1.513226</ele>
        <time>2026-09-02T15:36:11.938Z</time>
      </trkpt>
      <trkpt lat="53.225158" lon="6.554550">
        <ele>1.520999</ele>
        <time>2026-09-02T15:36:16.931Z</time>
      </trkpt>
      <trkpt lat="53.225247" lon="6.554519">
        <ele>1.528279</ele>
        <time>2026-09-02T15:36:21.937Z</time>
      </trkpt>
      <trkpt lat="53.225338" lon="6.554487">
        <ele>1.535725</ele>
        <time>2026-09-02T15:36:26.937Z</time>
      </trkpt>
      <trkpt lat="53.225433" lon="6.554446">
        <ele>1.543582</ele>
        <time>2026-09-02T15:36:32.938Z</time>
      </trkpt>
      <trkpt lat="53.225529" lon="6.554410">
        <ele>1.551461</ele>
        <time>2026-09-02T15:36:37.938Z</time>
      </trkpt>
      <trkpt lat="53.225639" lon="6.554423">
        <ele>1.560291</ele>
        <time>2026-09-02T15:36:42.935Z</time>
      </trkpt>
      <trkpt lat="53.225746" lon="6.554464">
        <ele>1.569081</ele>
        <time>2026-09-02T15:36:47.934Z</time>
      </trkpt>
      <trkpt lat="53.225818" lon="6.554577">
        <ele>1.576992</ele>
        <time>2026-09-02T15:36:52.946Z</time>
      </trkpt>
      <trkpt lat="53.225871" lon="6.554735">
        <ele>1.585674</ele>
        <time>2026-09-02T15:36:58.934Z</time>
      </trkpt>
      <trkpt lat="53.225906" lon="6.554889">
        <ele>1.593571</ele>
        <time>2026-09-02T15:37:03.933Z</time>
      </trkpt>
      <trkpt lat="53.225930" lon="6.555041">
        <ele>1.601107</ele>
        <time>2026-09-02T15:37:07.948Z</time>
      </trkpt>
      <trkpt lat="53.225936" lon="6.555209">
        <ele>1.609174</ele>
        <time>2026-09-02T15:37:11.933Z</time>
      </trkpt>
      <trkpt lat="53.225949" lon="6.555361">
        <ele>1.616535</ele>
        <time>2026-09-02T15:37:15.934Z</time>
      </trkpt>
      <trkpt lat="53.225966" lon="6.555513">
        <ele>1.697201</ele>
        <time>2026-09-02T15:37:20.931Z</time>
      </trkpt>
      <trkpt lat="53.225974" lon="6.555674">
        <ele>1.863945</ele>
        <time>2026-09-02T15:37:25.930Z</time>
      </trkpt>
      <trkpt lat="53.225978" lon="6.555851">
        <ele>2.046760</ele>
        <time>2026-09-02T15:37:30.938Z</time>
      </trkpt>
      <trkpt lat="53.225983" lon="6.556021">
        <ele>2.222433</ele>
        <time>2026-09-02T15:37:36.938Z</time>
      </trkpt>
      <trkpt lat="53.226003" lon="6.556191">
        <ele>2.401250</ele>
        <time>2026-09-02T15:37:43.934Z</time>
      </trkpt>
      <trkpt lat="53.226012" lon="6.556358">
        <ele>2.574311</ele>
        <time>2026-09-02T15:37:48.933Z</time>
      </trkpt>
      <trkpt lat="53.226024" lon="6.556527">
        <ele>2.749963</ele>
        <time>2026-09-02T15:37:53.946Z</time>
      </trkpt>
      <trkpt lat="53.226031" lon="6.556700">
        <ele>2.928927</ele>
        <time>2026-09-02T15:37:58.931Z</time>
      </trkpt>
      <trkpt lat="53.226035" lon="6.556879">
        <ele>3.113806</ele>
        <time>2026-09-02T15:38:04.934Z</time>
      </trkpt>
      <trkpt lat="53.226036" lon="6.557030">
        <ele>3.269666</ele>
        <time>2026-09-02T15:38:09.933Z</time>
      </trkpt>
      <trkpt lat="53.225987" lon="6.557163">
        <ele>3.430850</ele>
        <time>2026-09-02T15:38:14.930Z</time>
      </trkpt>
      <trkpt lat="53.225903" lon="6.557236">
        <ele>3.594098</ele>
        <time>2026-09-02T15:38:18.938Z</time>
      </trkpt>
      <trkpt lat="53.225826" lon="6.557318">
        <ele>3.751534</ele>
        <time>2026-09-02T15:38:22.931Z</time>
      </trkpt>
      <trkpt lat="53.225752" lon="6.557412">
        <ele>3.911814</ele>
        <time>2026-09-02T15:38:26.931Z</time>
      </trkpt>
      <trkpt lat="53.225676" lon="6.557510">
        <ele>4.077341</ele>
        <time>2026-09-02T15:38:30.949Z</time>
      </trkpt>
      <trkpt lat="53.225593" lon="6.557590">
        <ele>4.242552</ele>
        <time>2026-09-02T15:38:33.931Z</time>
      </trkpt>
      <trkpt lat="53.225504" lon="6.557664">
        <ele>4.413951</ele>
        <time>2026-09-02T15:38:36.935Z</time>
      </trkpt>
      <trkpt lat="53.225411" lon="6.557748">
        <ele>4.596228</ele>
        <time>2026-09-02T15:38:39.931Z</time>
      </trkpt>
      <trkpt lat="53.225333" lon="6.557830">
        <ele>4.743253</ele>
        <time>2026-09-02T15:38:42.934Z</time>
      </trkpt>
      <trkpt lat="53.225236" lon="6.557946">
        <ele>4.876674</ele>
        <time>2026-09-02T15:38:46.933Z</time>
      </trkpt>
      <trkpt lat="53.225154" lon="6.558042">
        <ele>4.988665</ele>
        <time>2026-09-02T15:38:49.929Z</time>
      </trkpt>
      <trkpt lat="53.225069" lon="6.558147">
        <ele>5.106900</ele>
        <time>2026-09-02T15:38:52.935Z</time>
      </trkpt>
      <trkpt lat="53.224982" lon="6.558248">
        <ele>5.225393</ele>
        <time>2026-09-02T15:38:55.933Z</time>
      </trkpt>
      <trkpt lat="53.224897" lon="6.558342">
        <ele>5.339403</ele>
        <time>2026-09-02T15:38:58.930Z</time>
      </trkpt>
      <trkpt lat="53.224808" lon="6.558456">
        <ele>5.464838</ele>
        <time>2026-09-02T15:39:01.930Z</time>
      </trkpt>
      <trkpt lat="53.224712" lon="6.558563">
        <ele>5.593912</ele>
        <time>2026-09-02T15:39:04.933Z</time>
      </trkpt>
      <trkpt lat="53.224631" lon="6.558663">
        <ele>5.706560</ele>
        <time>2026-09-02T15:39:07.933Z</time>
      </trkpt>
      <trkpt lat="53.224538" lon="6.558614">
        <ele>5.815623</ele>
        <time>2026-09-02T15:39:12.933Z</time>
      </trkpt>
      <trkpt lat="53.224488" lon="6.558439">
        <ele>5.945456</ele>
        <time>2026-09-02T15:39:17.938Z</time>
      </trkpt>
      <trkpt lat="53.224437" lon="6.558285">
        <ele>6.063293</ele>
        <time>2026-09-02T15:39:21.938Z</time>
      </trkpt>
      <trkpt lat="53.224365" lon="6.558168">
        <ele>6.175637</ele>
        <time>2026-09-02T15:39:25.938Z</time>
      </trkpt>
      <trkpt lat="53.224297" lon="6.558040">
        <ele>6.290219</ele>
        <time>2026-09-02T15:39:29.935Z</time>
      </trkpt>
      <trkpt lat="53.224311" lon="6.557854">
        <ele>6.415738</ele>
        <time>2026-09-02T15:39:34.935Z</time>
      </trkpt>
      <trkpt lat="53.224403" lon="6.557777">
        <ele>6.530825</ele>
        <time>2026-09-02T15:39:37.934Z</time>
      </trkpt>
      <trkpt lat="53.224498" lon="6.557697">
        <ele>6.649811</ele>
        <time>2026-09-02T15:39:40.946Z</time>
      </trkpt>
      <trkpt lat="53.224582" lon="6.557629">
        <ele>6.735281</ele>
        <time>2026-09-02T15:39:43.937Z</time>
      </trkpt>
      <trkpt lat="53.224659" lon="6.557542">
        <ele>6.746754</ele>
        <time>2026-09-02T15:39:46.934Z</time>
      </trkpt>
      <trkpt lat="53.224740" lon="6.557474">
        <ele>6.757942</ele>
        <time>2026-09-02T15:39:49.933Z</time>
      </trkpt>
      <trkpt lat="53.224823" lon="6.557403">
        <ele>6.769450</ele>
        <time>2026-09-02T15:39:52.932Z</time>
      </trkpt>
      <trkpt lat="53.224909" lon="6.557331">
        <ele>6.781323</ele>
        <time>2026-09-02T15:39:55.932Z</time>
      </trkpt>
      <trkpt lat="53.224989" lon="6.557258">
        <ele>6.792573</ele>
        <time>2026-09-02T15:39:58.946Z</time>
      </trkpt>
      <trkpt lat="53.225080" lon="6.557337">
        <ele>6.805230</ele>
        <time>2026-09-02T15:40:02.932Z</time>
      </trkpt>
      <trkpt lat="53.225129" lon="6.557484">
        <ele>6.817662</ele>
        <time>2026-09-02T15:40:05.932Z</time>
      </trkpt>
      <trkpt lat="53.225175" lon="6.557629">
        <ele>6.829786</ele>
        <time>2026-09-02T15:40:08.939Z</time>
      </trkpt>
      <trkpt lat="53.225224" lon="6.557765">
        <ele>6.841514</ele>
        <time>2026-09-02T15:40:11.930Z</time>
      </trkpt>
      <trkpt lat="53.225283" lon="6.557931">
        <ele>6.855778</ele>
        <time>2026-09-02T15:40:15.938Z</time>
      </trkpt>
      <trkpt lat="53.225334" lon="6.558079">
        <ele>6.868395</ele>
        <time>2026-09-02T15:40:18.932Z</time>
      </trkpt>
      <trkpt lat="53.225374" lon="6.558222">
        <ele>6.880057</ele>
        <time>2026-09-02T15:40:21.938Z</time>
      </trkpt>
      <trkpt lat="53.225415" lon="6.558359">
        <ele>6.891373</ele>
        <time>2026-09-02T15:40:24.938Z</time>
      </trkpt>
      <trkpt lat="53.225459" lon="6.558506">
        <ele>6.903516</ele>
        <time>2026-09-02T15:40:27.938Z</time>
      </trkpt>
      <trkpt lat="53.225498" lon="6.558669">
        <ele>6.916486</ele>
        <time>2026-09-02T15:40:30.932Z</time>
      </trkpt>
      <trkpt lat="53.225539" lon="6.558836">
        <ele>6.929822</ele>
        <time>2026-09-02T15:40:33.938Z</time>
      </trkpt>
      <trkpt lat="53.225581" lon="6.559005">
        <ele>6.943342</ele>
        <time>2026-09-02T15:40:36.931Z</time>
      </trkpt>
      <trkpt lat="53.225619" lon="6.559174">
        <ele>6.949069</ele>
        <time>2026-09-02T15:40:39.938Z</time>
      </trkpt>
      <trkpt lat="53.225668" lon="6.559330">
        <ele>6.905983</ele>
        <time>2026-09-02T15:40:42.938Z</time>
      </trkpt>
      <trkpt lat="53.225711" lon="6.559486">
        <ele>6.863981</ele>
        <time>2026-09-02T15:40:45.937Z</time>
      </trkpt>
      <trkpt lat="53.225738" lon="6.559649">
        <ele>6.822618</ele>
        <time>2026-09-02T15:40:48.931Z</time>
      </trkpt>
      <trkpt lat="53.225752" lon="6.559822">
        <ele>6.779923</ele>
        <time>2026-09-02T15:40:51.934Z</time>
      </trkpt>
      <trkpt lat="53.225748" lon="6.559991">
        <ele>6.738558</ele>
        <time>2026-09-02T15:40:54.937Z</time>
      </trkpt>
      <trkpt lat="53.225742" lon="6.560149">
        <ele>6.699839</ele>
        <time>2026-09-02T15:40:57.931Z</time>
      </trkpt>
      <trkpt lat="53.225721" lon="6.560334">
        <ele>6.653787</ele>
        <time>2026-09-02T15:41:01.931Z</time>
      </trkpt>
      <trkpt lat="53.225647" lon="6.560446">
        <ele>6.612993</ele>
        <time>2026-09-02T15:41:07.938Z</time>
      </trkpt>
      <trkpt lat="53.225544" lon="6.560438">
        <ele>6.570869</ele>
        <time>2026-09-02T15:41:12.938Z</time>
      </trkpt>
      <trkpt lat="53.225455" lon="6.560373">
        <ele>6.531187</ele>
        <time>2026-09-02T15:41:18.937Z</time>
      </trkpt>
      <trkpt lat="53.225412" lon="6.560234">
        <ele>6.492921</ele>
        <time>2026-09-02T15:41:23.938Z</time>
      </trkpt>
      <trkpt lat="53.225334" lon="6.560125">
        <ele>6.451376</ele>
        <time>2026-09-02T15:41:30.938Z</time>
      </trkpt>
      <trkpt lat="53.225248" lon="6.560036">
        <ele>6.410046</ele>
        <time>2026-09-02T15:41:35.934Z</time>
      </trkpt>
      <trkpt lat="53.225176" lon="6.559822">
        <ele>6.350009</ele>
        <time>2026-09-02T15:42:21.946Z</time>
      </trkpt>
      <trkpt lat="53.225123" lon="6.559689">
        <ele>6.310933</ele>
        <time>2026-09-02T15:42:26.934Z</time>
      </trkpt>
      <trkpt lat="53.225064" lon="6.559558">
        <ele>6.270840</ele>
        <time>2026-09-02T15:42:31.930Z</time>
      </trkpt>
      <trkpt lat="53.225013" lon="6.559414">
        <ele>6.229920</ele>
        <time>2026-09-02T15:42:37.946Z</time>
      </trkpt>
      <trkpt lat="53.224911" lon="6.559422">
        <ele>6.164724</ele>
        <time>2026-09-02T15:42:46.932Z</time>
      </trkpt>
      <trkpt lat="53.224827" lon="6.559520">
        <ele>6.092073</ele>
        <time>2026-09-02T15:42:52.931Z</time>
      </trkpt>
      <trkpt lat="53.224798" lon="6.559666">
        <ele>6.026775</ele>
        <time>2026-09-02T15:43:02.933Z</time>
      </trkpt>
      <trkpt lat="53.224714" lon="6.559823">
        <ele>5.937393</ele>
        <time>2026-09-02T15:43:39.937Z</time>
      </trkpt>
      <trkpt lat="53.224675" lon="6.559975">
        <ele>5.867193</ele>
        <time>2026-09-02T15:43:55.937Z</time>
      </trkpt>
      <trkpt lat="53.224748" lon="6.560092">
        <ele>5.795457</ele>
        <time>2026-09-02T15:44:02.936Z</time>
      </trkpt>
      <trkpt lat="53.224791" lon="6.560242">
        <ele>5.724860</ele>
        <time>2026-09-02T15:44:09.937Z</time>
      </trkpt>
      <trkpt lat="53.224699" lon="6.560254">
        <ele>5.659428</ele>
        <time>2026-09-02T15:44:18.938Z</time>
      </trkpt>
      <trkpt lat="53.224643" lon="6.560102">
        <ele>5.583665</ele>
        <time>2026-09-02T15:44:24.937Z</time>
      </trkpt>
      <trkpt lat="53.224595" lon="6.559959">
        <ele>5.514071</ele>
        <time>2026-09-02T15:44:32.938Z</time>
      </trkpt>
      <trkpt lat="53.224681" lon="6.559881">
        <ele>5.444683</ele>
        <time>2026-09-02T15:44:47.937Z</time>
      </trkpt>
      <trkpt lat="53.224810" lon="6.559721">
        <ele>5.330755</ele>
        <time>2026-09-02T15:45:07.949Z</time>
      </trkpt>
      <trkpt lat="53.224881" lon="6.559853">
        <ele>5.255428</ele>
        <time>2026-09-02T15:45:13.937Z</time>
      </trkpt>
      <trkpt lat="53.224939" lon="6.560004">
        <ele>5.179270</ele>
        <time>2026-09-02T15:45:18.937Z</time>
      </trkpt>
      <trkpt lat="53.224996" lon="6.560160">
        <ele>5.101690</ele>
        <time>2026-09-02T15:45:23.932Z</time>
      </trkpt>
      <trkpt lat="53.225054" lon="6.560298">
        <ele>5.030115</ele>
        <time>2026-09-02T15:45:27.941Z</time>
      </trkpt>
      <trkpt lat="53.225115" lon="6.560443">
        <ele>4.954886</ele>
        <time>2026-09-02T15:45:31.940Z</time>
      </trkpt>
      <trkpt lat="53.225140" lon="6.560590">
        <ele>5.008851</ele>
        <time>2026-09-02T15:45:37.937Z</time>
      </trkpt>
      <trkpt lat="53.225051" lon="6.560687">
        <ele>5.097008</ele>
        <time>2026-09-02T15:45:42.933Z</time>
      </trkpt>
      <trkpt lat="53.224981" lon="6.560808">
        <ele>5.180573</ele>
        <time>2026-09-02T15:45:48.938Z</time>
      </trkpt>
      <trkpt lat="53.224920" lon="6.560929">
        <ele>5.259134</ele>
        <time>2026-09-02T15:45:55.938Z</time>
      </trkpt>
      <trkpt lat="53.224993" lon="6.560819">
        <ele>5.340692</ele>
        <time>2026-09-02T15:46:11.937Z</time>
      </trkpt>
      <trkpt lat="53.225041" lon="6.560687">
        <ele>5.417393</ele>
        <time>2026-09-02T15:46:15.937Z</time>
      </trkpt>
      <trkpt lat="53.225125" lon="6.560594">
        <ele>5.500993</ele>
        <time>2026-09-02T15:46:19.931Z</time>
      </trkpt>
      <trkpt lat="53.225215" lon="6.560491">
        <ele>5.591495</ele>
        <time>2026-09-02T15:46:23.937Z</time>
      </trkpt>
      <trkpt lat="53.225306" lon="6.560398">
        <ele>5.679993</ele>
        <time>2026-09-02T15:46:27.937Z</time>
      </trkpt>
      <trkpt lat="53.225404" lon="6.560321">
        <ele>5.769835</ele>
        <time>2026-09-02T15:46:32.937Z</time>
      </trkpt>
      <trkpt lat="53.225504" lon="6.560393">
        <ele>5.860169</ele>
        <time>2026-09-02T15:46:37.938Z</time>
      </trkpt>
      <trkpt lat="53.225601" lon="6.560412">
        <ele>5.941187</ele>
        <time>2026-09-02T15:46:43.939Z</time>
      </trkpt>
      <trkpt lat="53.225700" lon="6.560438">
        <ele>6.024322</ele>
        <time>2026-09-02T15:46:47.939Z</time>
      </trkpt>
      <trkpt lat="53.225785" lon="6.560489">
        <ele>6.099245</ele>
        <time>2026-09-02T15:46:52.937Z</time>
      </trkpt>
      <trkpt lat="53.225882" lon="6.560516">
        <ele>6.180822</ele>
        <time>2026-09-02T15:46:56.938Z</time>
      </trkpt>
      <trkpt lat="53.225977" lon="6.560520">
        <ele>6.259655</ele>
        <time>2026-09-02T15:47:00.938Z</time>
      </trkpt>
      <trkpt lat="53.226037" lon="6.560668">
        <ele>6.348422</ele>
        <time>2026-09-02T15:47:05.937Z</time>
      </trkpt>
      <trkpt lat="53.226041" lon="6.560827">
        <ele>6.427455</ele>
        <time>2026-09-02T15:47:09.937Z</time>
      </trkpt>
      <trkpt lat="53.226042" lon="6.560996">
        <ele>6.454064</ele>
        <time>2026-09-02T15:47:13.937Z</time>
      </trkpt>
      <trkpt lat="53.226053" lon="6.561146">
        <ele>6.471390</ele>
        <time>2026-09-02T15:47:18.937Z</time>
      </trkpt>
      <trkpt lat="53.225953" lon="6.561252">
        <ele>6.494072</ele>
        <time>2026-09-02T15:47:22.937Z</time>
      </trkpt>
      <trkpt lat="53.225859" lon="6.561289">
        <ele>6.512567</ele>
        <time>2026-09-02T15:47:24.937Z</time>
      </trkpt>
      <trkpt lat="53.225734" lon="6.561350">
        <ele>6.537507</ele>
        <time>2026-09-02T15:47:27.931Z</time>
      </trkpt>
      <trkpt lat="53.225632" lon="6.561438">
        <ele>6.559493</ele>
        <time>2026-09-02T15:47:30.937Z</time>
      </trkpt>
      <trkpt lat="53.225518" lon="6.561545">
        <ele>6.584537</ele>
        <time>2026-09-02T15:47:33.937Z</time>
      </trkpt>
      <trkpt lat="53.225410" lon="6.561663">
        <ele>6.609252</ele>
        <time>2026-09-02T15:47:36.937Z</time>
      </trkpt>
      <trkpt lat="53.225308" lon="6.561758">
        <ele>6.631618</ele>
        <time>2026-09-02T15:47:39.930Z</time>
      </trkpt>
      <trkpt lat="53.225208" lon="6.561860">
        <ele>6.654057</ele>
        <time>2026-09-02T15:47:42.938Z</time>
      </trkpt>
      <trkpt lat="53.225102" lon="6.561972">
        <ele>6.678078</ele>
        <time>2026-09-02T15:47:45.937Z</time>
      </trkpt>
      <trkpt lat="53.224996" lon="6.562094">
        <ele>6.702731</ele>
        <time>2026-09-02T15:47:48.936Z</time>
      </trkpt>
      <trkpt lat="53.224882" lon="6.562211">
        <ele>6.728356</ele>
        <time>2026-09-02T15:47:51.937Z</time>
      </trkpt>
      <trkpt lat="53.224778" lon="6.562315">
        <ele>6.751570</ele>
        <time>2026-09-02T15:47:54.938Z</time>
      </trkpt>
      <trkpt lat="53.224678" lon="6.562415">
        <ele>6.773891</ele>
        <time>2026-09-02T15:47:57.938Z</time>
      </trkpt>
      <trkpt lat="53.224574" lon="6.562519">
        <ele>6.681234</ele>
        <time>2026-09-02T15:48:00.938Z</time>
      </trkpt>
      <trkpt lat="53.224477" lon="6.562617">
        <ele>6.543552</ele>
        <time>2026-09-02T15:48:03.937Z</time>
      </trkpt>
      <trkpt lat="53.224374" lon="6.562723">
        <ele>6.396618</ele>
        <time>2026-09-02T15:48:06.937Z</time>
      </trkpt>
      <trkpt lat="53.224277" lon="6.562846">
        <ele>6.248708</ele>
        <time>2026-09-02T15:48:09.930Z</time>
      </trkpt>
      <trkpt lat="53.224180" lon="6.562972">
        <ele>6.099468</ele>
        <time>2026-09-02T15:48:12.937Z</time>
      </trkpt>
      <trkpt lat="53.224076" lon="6.563078">
        <ele>5.951499</ele>
        <time>2026-09-02T15:48:15.931Z</time>
      </trkpt>
      <trkpt lat="53.223972" lon="6.563189">
        <ele>5.801604</ele>
        <time>2026-09-02T15:48:18.937Z</time>
      </trkpt>
      <trkpt lat="53.223875" lon="6.563279">
        <ele>5.666839</ele>
        <time>2026-09-02T15:48:21.933Z</time>
      </trkpt>
      <trkpt lat="53.223786" lon="6.563378">
        <ele>5.536971</ele>
        <time>2026-09-02T15:48:24.937Z</time>
      </trkpt>
      <trkpt lat="53.223690" lon="6.563481">
        <ele>5.398395</ele>
        <time>2026-09-02T15:48:27.937Z</time>
      </trkpt>
      <trkpt lat="53.223598" lon="6.563571">
        <ele>5.268905</ele>
        <time>2026-09-02T15:48:30.937Z</time>
      </trkpt>
      <trkpt lat="53.223525" lon="6.563717">
        <ele>5.130591</ele>
        <time>2026-09-02T15:48:34.931Z</time>
      </trkpt>
      <trkpt lat="53.223443" lon="6.563837">
        <ele>4.998183</ele>
        <time>2026-09-02T15:48:39.939Z</time>
      </trkpt>
      <trkpt lat="53.223363" lon="6.563913">
        <ele>4.886405</ele>
        <time>2026-09-02T15:48:43.937Z</time>
      </trkpt>
      <trkpt lat="53.223290" lon="6.564013">
        <ele>4.771741</ele>
        <time>2026-09-02T15:48:51.937Z</time>
      </trkpt>
      <trkpt lat="53.223172" lon="6.563964">
        <ele>4.624065</ele>
        <time>2026-09-02T15:51:10.937Z</time>
      </trkpt>
      <trkpt lat="53.223065" lon="6.564064">
        <ele>4.556214</ele>
        <time>2026-09-02T15:51:14.937Z</time>
      </trkpt>
      <trkpt lat="53.222973" lon="6.564168">
        <ele>4.511180</ele>
        <time>2026-09-02T15:51:17.937Z</time>
      </trkpt>
      <trkpt lat="53.222881" lon="6.564268">
        <ele>4.466683</ele>
        <time>2026-09-02T15:51:20.938Z</time>
      </trkpt>
      <trkpt lat="53.222793" lon="6.564369">
        <ele>4.423399</ele>
        <time>2026-09-02T15:51:23.932Z</time>
      </trkpt>
      <trkpt lat="53.222700" lon="6.564467">
        <ele>4.378823</ele>
        <time>2026-09-02T15:51:26.937Z</time>
      </trkpt>
      <trkpt lat="53.222612" lon="6.564565">
        <ele>4.335947</ele>
        <time>2026-09-02T15:51:29.937Z</time>
      </trkpt>
      <trkpt lat="53.222533" lon="6.564647">
        <ele>4.298242</ele>
        <time>2026-09-02T15:51:32.937Z</time>
      </trkpt>
      <trkpt lat="53.222447" lon="6.564739">
        <ele>4.256841</ele>
        <time>2026-09-02T15:51:36.937Z</time>
      </trkpt>
      <trkpt lat="53.222299" lon="6.564907">
        <ele>4.184300</ele>
        <time>2026-09-02T15:51:59.938Z</time>
      </trkpt>
      <trkpt lat="53.222214" lon="6.564960">
        <ele>4.147520</ele>
        <time>2026-09-02T15:52:02.931Z</time>
      </trkpt>
      <trkpt lat="53.222147" lon="6.564835">
        <ele>4.106800</ele>
        <time>2026-09-02T15:52:05.930Z</time>
      </trkpt>
      <trkpt lat="53.222103" lon="6.564664">
        <ele>4.061626</ele>
        <time>2026-09-02T15:52:08.937Z</time>
      </trkpt>
      <trkpt lat="53.222057" lon="6.564479">
        <ele>4.013007</ele>
        <time>2026-09-02T15:52:11.939Z</time>
      </trkpt>
      <trkpt lat="53.222005" lon="6.564299">
        <ele>3.964500</ele>
        <time>2026-09-02T15:52:14.931Z</time>
      </trkpt>
      <trkpt lat="53.221954" lon="6.564132">
        <ele>3.918999</ele>
        <time>2026-09-02T15:52:17.934Z</time>
      </trkpt>
      <trkpt lat="53.221895" lon="6.563949">
        <ele>3.868553</ele>
        <time>2026-09-02T15:52:20.931Z</time>
      </trkpt>
      <trkpt lat="53.221834" lon="6.563774">
        <ele>3.945290</ele>
        <time>2026-09-02T15:52:23.929Z</time>
      </trkpt>
      <trkpt lat="53.221782" lon="6.563582">
        <ele>4.027490</ele>
        <time>2026-09-02T15:52:26.934Z</time>
      </trkpt>
      <trkpt lat="53.221727" lon="6.563398">
        <ele>4.107712</ele>
        <time>2026-09-02T15:52:29.933Z</time>
      </trkpt>
      <trkpt lat="53.221671" lon="6.563217">
        <ele>4.187185</ele>
        <time>2026-09-02T15:52:32.932Z</time>
      </trkpt>
      <trkpt lat="53.221620" lon="6.563037">
        <ele>4.264864</ele>
        <time>2026-09-02T15:52:35.932Z</time>
      </trkpt>
      <trkpt lat="53.221565" lon="6.562859">
        <ele>4.342998</ele>
        <time>2026-09-02T15:52:38.933Z</time>
      </trkpt>
      <trkpt lat="53.221484" lon="6.562719">
        <ele>4.418941</ele>
        <time>2026-09-02T15:52:41.935Z</time>
      </trkpt>
      <trkpt lat="53.221393" lon="6.562687">
        <ele>4.479528</ele>
        <time>2026-09-02T15:52:44.935Z</time>
      </trkpt>
      <trkpt lat="53.221292" lon="6.562766">
        <ele>4.552190</ele>
        <time>2026-09-02T15:52:49.946Z</time>
      </trkpt>
      <trkpt lat="53.221194" lon="6.562838">
        <ele>4.621942</ele>
        <time>2026-09-02T15:52:54.933Z</time>
      </trkpt>
      <trkpt lat="53.221116" lon="6.562938">
        <ele>4.686005</ele>
        <time>2026-09-02T15:52:58.933Z</time>
      </trkpt>
      <trkpt lat="53.221029" lon="6.563016">
        <ele>4.750337</ele>
        <time>2026-09-02T15:53:03.933Z</time>
      </trkpt>
      <trkpt lat="53.220925" lon="6.563077">
        <ele>4.822151</ele>
        <time>2026-09-02T15:53:08.938Z</time>
      </trkpt>
      <trkpt lat="53.220851" lon="6.562978">
        <ele>4.883923</ele>
        <time>2026-09-02T15:53:12.933Z</time>
      </trkpt>
      <trkpt lat="53.220809" lon="6.562810">
        <ele>4.954940</ele>
        <time>2026-09-02T15:53:16.933Z</time>
      </trkpt>
      <trkpt lat="53.220763" lon="6.562633">
        <ele>5.030209</ele>
        <time>2026-09-02T15:53:20.935Z</time>
      </trkpt>
      <trkpt lat="53.220708" lon="6.562468">
        <ele>5.072905</ele>
        <time>2026-09-02T15:53:24.930Z</time>
      </trkpt>
      <trkpt lat="53.220666" lon="6.562315">
        <ele>5.106960</ele>
        <time>2026-09-02T15:53:28.932Z</time>
      </trkpt>
      <trkpt lat="53.220620" lon="6.562160">
        <ele>5.141962</ele>
        <time>2026-09-02T15:53:32.946Z</time>
      </trkpt>
      <trkpt lat="53.220694" lon="6.562030">
        <ele>5.178255</ele>
        <time>2026-09-02T15:53:38.945Z</time>
      </trkpt>
      <trkpt lat="53.220767" lon="6.561941">
        <ele>5.208797</ele>
        <time>2026-09-02T15:53:42.945Z</time>
      </trkpt>
      <trkpt lat="53.220850" lon="6.561870">
        <ele>5.240310</ele>
        <time>2026-09-02T15:53:48.932Z</time>
      </trkpt>
      <trkpt lat="53.220842" lon="6.561681">
        <ele>5.278645</ele>
        <time>2026-09-02T15:53:52.934Z</time>
      </trkpt>
      <trkpt lat="53.220791" lon="6.561529">
        <ele>5.313899</ele>
        <time>2026-09-02T15:53:55.932Z</time>
      </trkpt>
      <trkpt lat="53.220745" lon="6.561385">
        <ele>5.346922</ele>
        <time>2026-09-02T15:53:58.945Z</time>
      </trkpt>
      <trkpt lat="53.220703" lon="6.561223">
        <ele>5.382640</ele>
        <time>2026-09-02T15:54:01.930Z</time>
      </trkpt>
      <trkpt lat="53.220678" lon="6.561057">
        <ele>5.417273</ele>
        <time>2026-09-02T15:54:05.947Z</time>
      </trkpt>
      <trkpt lat="53.220574" lon="6.561003">
        <ele>5.454077</ele>
        <time>2026-09-02T15:54:16.935Z</time>
      </trkpt>
      <trkpt lat="53.220481" lon="6.561094">
        <ele>5.490500</ele>
        <time>2026-09-02T15:54:20.933Z</time>
      </trkpt>
      <trkpt lat="53.220385" lon="6.561168">
        <ele>5.526230</ele>
        <time>2026-09-02T15:54:23.932Z</time>
      </trkpt>
      <trkpt lat="53.220289" lon="6.561244">
        <ele>5.562131</ele>
        <time>2026-09-02T15:54:26.935Z</time>
      </trkpt>
      <trkpt lat="53.220196" lon="6.561311">
        <ele>5.596357</ele>
        <time>2026-09-02T15:54:29.933Z</time>
      </trkpt>
      <trkpt lat="53.220103" lon="6.561377">
        <ele>5.630504</ele>
        <time>2026-09-02T15:54:32.945Z</time>
      </trkpt>
      <trkpt lat="53.220017" lon="6.561454">
        <ele>5.730363</ele>
        <time>2026-09-02T15:54:35.930Z</time>
      </trkpt>
      <trkpt lat="53.219934" lon="6.561372">
        <ele>5.898032</ele>
        <time>2026-09-02T15:54:40.931Z</time>
      </trkpt>
      <trkpt lat="53.219888" lon="6.561226">
        <ele>6.069781</ele>
        <time>2026-09-02T15:54:44.932Z</time>
      </trkpt>
      <trkpt lat="53.219844" lon="6.561090">
        <ele>6.230708</ele>
        <time>2026-09-02T15:54:47.931Z</time>
      </trkpt>
      <trkpt lat="53.219797" lon="6.560947">
        <ele>6.400530</ele>
        <time>2026-09-02T15:54:50.934Z</time>
      </trkpt>
      <trkpt lat="53.219748" lon="6.560804">
        <ele>6.572052</ele>
        <time>2026-09-02T15:54:53.932Z</time>
      </trkpt>
      <trkpt lat="53.219700" lon="6.560666">
        <ele>6.738197</ele>
        <time>2026-09-02T15:54:56.931Z</time>
      </trkpt>
      <trkpt lat="53.219658" lon="6.560527">
        <ele>6.900283</ele>
        <time>2026-09-02T15:54:59.932Z</time>
      </trkpt>
      <trkpt lat="53.219617" lon="6.560388">
        <ele>7.061593</ele>
        <time>2026-09-02T15:55:02.933Z</time>
      </trkpt>
      <trkpt lat="53.219574" lon="6.560247">
        <ele>7.226322</ele>
        <time>2026-09-02T15:55:05.932Z</time>
      </trkpt>
      <trkpt lat="53.219527" lon="6.560095">
        <ele>7.404415</ele>
        <time>2026-09-02T15:55:08.931Z</time>
      </trkpt>
      <trkpt lat="53.219483" lon="6.559950">
        <ele>7.573645</ele>
        <time>2026-09-02T15:55:11.934Z</time>
      </trkpt>
      <trkpt lat="53.219430" lon="6.559775">
        <ele>7.777807</ele>
        <time>2026-09-02T15:55:15.945Z</time>
      </trkpt>
      <trkpt lat="53.219390" lon="6.559623">
        <ele>7.950654</ele>
        <time>2026-09-02T15:55:18.937Z</time>
      </trkpt>
      <trkpt lat="53.219348" lon="6.559475">
        <ele>8.121158</ele>
        <time>2026-09-02T15:55:21.945Z</time>
      </trkpt>
      <trkpt lat="53.219296" lon="6.559294">
        <ele>8.330155</ele>
        <time>2026-09-02T15:55:25.934Z</time>
      </trkpt>
      <trkpt lat="53.219256" lon="6.559144">
        <ele>8.501099</ele>
        <time>2026-09-02T15:55:28.936Z</time>
      </trkpt>
      <trkpt lat="53.219203" lon="6.558980">
        <ele>8.695112</ele>
        <time>2026-09-02T15:55:32.945Z</time>
      </trkpt>
      <trkpt lat="53.219156" lon="6.558835">
        <ele>8.770504</ele>
        <time>2026-09-02T15:55:36.945Z</time>
      </trkpt>
      <trkpt lat="53.219046" lon="6.558836">
        <ele>8.761964</ele>
        <time>2026-09-02T15:55:42.934Z</time>
      </trkpt>
      <trkpt lat="53.218968" lon="6.558922">
        <ele>8.754708</ele>
        <time>2026-09-02T15:55:45.945Z</time>
      </trkpt>
      <trkpt lat="53.218885" lon="6.559014">
        <ele>8.746975</ele>
        <time>2026-09-02T15:55:48.934Z</time>
      </trkpt>
      <trkpt lat="53.218837" lon="6.559158">
        <ele>8.739313</ele>
        <time>2026-09-02T15:55:52.936Z</time>
      </trkpt>
      <trkpt lat="53.218869" lon="6.559304">
        <ele>8.732086</ele>
        <time>2026-09-02T15:55:57.945Z</time>
      </trkpt>
      <trkpt lat="53.218935" lon="6.559471">
        <ele>8.722785</ele>
        <time>2026-09-02T15:56:01.935Z</time>
      </trkpt>
      <trkpt lat="53.218982" lon="6.559630">
        <ele>8.714542</ele>
        <time>2026-09-02T15:56:04.936Z</time>
      </trkpt>
      <trkpt lat="53.219028" lon="6.559791">
        <ele>8.706250</ele>
        <time>2026-09-02T15:56:07.933Z</time>
      </trkpt>
      <trkpt lat="53.219066" lon="6.559941">
        <ele>8.698679</ele>
        <time>2026-09-02T15:56:11.933Z</time>
      </trkpt>
      <trkpt lat="53.219153" lon="6.560063">
        <ele>8.689860</ele>
        <time>2026-09-02T15:56:15.935Z</time>
      </trkpt>
      <trkpt lat="53.219209" lon="6.560200">
        <ele>8.682149</ele>
        <time>2026-09-02T15:56:18.946Z</time>
      </trkpt>
      <trkpt lat="53.219245" lon="6.560353">
        <ele>8.674508</ele>
        <time>2026-09-02T15:56:21.933Z</time>
      </trkpt>
      <trkpt lat="53.219251" lon="6.560543">
        <ele>8.665664</ele>
        <time>2026-09-02T15:56:25.935Z</time>
      </trkpt>
      <trkpt lat="53.219270" lon="6.560727">
        <ele>8.656984</ele>
        <time>2026-09-02T15:56:29.933Z</time>
      </trkpt>
      <trkpt lat="53.219313" lon="6.560559">
        <ele>8.648492</ele>
        <time>2026-09-02T15:56:34.946Z</time>
      </trkpt>
      <trkpt lat="53.219260" lon="6.560384">
        <ele>8.639376</ele>
        <time>2026-09-02T15:56:38.945Z</time>
      </trkpt>
      <trkpt lat="53.219233" lon="6.560231">
        <ele>8.569040</ele>
        <time>2026-09-02T15:56:41.933Z</time>
      </trkpt>
      <trkpt lat="53.219192" lon="6.560093">
        <ele>8.412764</ele>
        <time>2026-09-02T15:56:44.934Z</time>
      </trkpt>
      <trkpt lat="53.219093" lon="6.559995">
        <ele>8.217789</ele>
        <time>2026-09-02T15:56:50.933Z</time>
      </trkpt>
      <trkpt lat="53.218992" lon="6.559898">
        <ele>8.020398</ele>
        <time>2026-09-02T15:56:53.930Z</time>
      </trkpt>
      <trkpt lat="53.218898" lon="6.559939">
        <ele>7.855801</ele>
        <time>2026-09-02T15:56:59.931Z</time>
      </trkpt>
      <trkpt lat="53.218804" lon="6.559994">
        <ele>7.687054</ele>
        <time>2026-09-02T15:57:07.945Z</time>
      </trkpt>
      <trkpt lat="53.218704" lon="6.560060">
        <ele>7.504883</ele>
        <time>2026-09-02T15:57:12.931Z</time>
      </trkpt>
      <trkpt lat="53.218595" lon="6.560085">
        <ele>7.318480</ele>
        <time>2026-09-02T15:57:18.948Z</time>
      </trkpt>
      <trkpt lat="53.218488" lon="6.560075">
        <ele>7.136916</ele>
        <time>2026-09-02T15:57:22.932Z</time>
      </trkpt>
      <trkpt lat="53.218396" lon="6.560097">
        <ele>6.979458</ele>
        <time>2026-09-02T15:57:25.932Z</time>
      </trkpt>
      <trkpt lat="53.218337" lon="6.560220">
        <ele>6.819581</ele>
        <time>2026-09-02T15:57:28.945Z</time>
      </trkpt>
      <trkpt lat="53.218283" lon="6.560355">
        <ele>6.654884</ele>
        <time>2026-09-02T15:57:31.933Z</time>
      </trkpt>
      <trkpt lat="53.218216" lon="6.560469">
        <ele>6.492837</ele>
        <time>2026-09-02T15:57:34.933Z</time>
      </trkpt>
      <trkpt lat="53.218130" lon="6.560561">
        <ele>6.319807</ele>
        <time>2026-09-02T15:57:38.929Z</time>
      </trkpt>
      <trkpt lat="53.218050" lon="6.560654">
        <ele>6.154667</ele>
        <time>2026-09-02T15:57:44.932Z</time>
      </trkpt>
      <trkpt lat="53.217963" lon="6.560741">
        <ele>5.982868</ele>
        <time>2026-09-02T15:57:48.930Z</time>
      </trkpt>
      <trkpt lat="53.217865" lon="6.560798">
        <ele>5.807054</ele>
        <time>2026-09-02T15:57:52.933Z</time>
      </trkpt>
      <trkpt lat="53.217776" lon="6.560882">
        <ele>5.633856</ele>
        <time>2026-09-02T15:57:57.933Z</time>
      </trkpt>
      <trkpt lat="53.217692" lon="6.560937">
        <ele>5.597506</ele>
        <time>2026-09-02T15:58:01.931Z</time>
      </trkpt>
      <trkpt lat="53.217592" lon="6.561008">
        <ele>5.614433</ele>
        <time>2026-09-02T15:58:05.932Z</time>
      </trkpt>
      <trkpt lat="53.217495" lon="6.561051">
        <ele>5.630067</ele>
        <time>2026-09-02T15:58:14.945Z</time>
      </trkpt>
      <trkpt lat="53.217390" lon="6.561105">
        <ele>5.647182</ele>
        <time>2026-09-02T15:58:19.934Z</time>
      </trkpt>
      <trkpt lat="53.217299" lon="6.561181">
        <ele>5.663031</ele>
        <time>2026-09-02T15:58:23.933Z</time>
      </trkpt>
      <trkpt lat="53.217212" lon="6.561255">
        <ele>5.678240</ele>
        <time>2026-09-02T15:58:28.931Z</time>
      </trkpt>
      <trkpt lat="53.217112" lon="6.561317">
        <ele>5.694857</ele>
        <time>2026-09-02T15:58:32.929Z</time>
      </trkpt>
      <trkpt lat="53.217002" lon="6.561366">
        <ele>5.712592</ele>
        <time>2026-09-02T15:58:36.931Z</time>
      </trkpt>
      <trkpt lat="53.216908" lon="6.561384">
        <ele>5.727331</ele>
        <time>2026-09-02T15:58:40.933Z</time>
      </trkpt>
      <trkpt lat="53.216810" lon="6.561403">
        <ele>5.742700</ele>
        <time>2026-09-02T15:58:44.930Z</time>
      </trkpt>
      <trkpt lat="53.216720" lon="6.561428">
        <ele>5.756912</ele>
        <time>2026-09-02T15:58:51.934Z</time>
      </trkpt>
      <trkpt lat="53.216615" lon="6.561408">
        <ele>5.773375</ele>
        <time>2026-09-02T15:58:56.932Z</time>
      </trkpt>
      <trkpt lat="53.216507" lon="6.561434">
        <ele>5.790373</ele>
        <time>2026-09-02T15:59:00.929Z</time>
      </trkpt>
      <trkpt lat="53.216417" lon="6.561457">
        <ele>5.804556</ele>
        <time>2026-09-02T15:59:03.931Z</time>
      </trkpt>
      <trkpt lat="53.216315" lon="6.561488">
        <ele>5.820707</ele>
        <time>2026-09-02T15:59:06.931Z</time>
      </trkpt>
      <trkpt lat="53.216220" lon="6.561519">
        <ele>5.835785</ele>
        <time>2026-09-02T15:59:09.934Z</time>
      </trkpt>
      <trkpt lat="53.216125" lon="6.561536">
        <ele>5.850669</ele>
        <time>2026-09-02T15:59:12.930Z</time>
      </trkpt>
      <trkpt lat="53.216046" lon="6.561396">
        <ele>5.864502</ele>
        <time>2026-09-02T15:59:16.938Z</time>
      </trkpt>
      <trkpt lat="53.216011" lon="6.561242">
        <ele>5.793167</ele>
        <time>2026-09-02T15:59:19.946Z</time>
      </trkpt>
      <trkpt lat="53.215964" lon="6.561064">
        <ele>5.708917</ele>
        <time>2026-09-02T15:59:23.932Z</time>
      </trkpt>
      <trkpt lat="53.215939" lon="6.560898">
        <ele>5.634788</ele>
        <time>2026-09-02T15:59:26.945Z</time>
      </trkpt>
      <trkpt lat="53.215926" lon="6.560713">
        <ele>5.554119</ele>
        <time>2026-09-02T15:59:29.945Z</time>
      </trkpt>
      <trkpt lat="53.215925" lon="6.560523">
        <ele>5.471832</ele>
        <time>2026-09-02T15:59:32.933Z</time>
      </trkpt>
      <trkpt lat="53.215932" lon="6.560338">
        <ele>5.391553</ele>
        <time>2026-09-02T15:59:35.946Z</time>
      </trkpt>
      <trkpt lat="53.215936" lon="6.560157">
        <ele>5.313113</ele>
        <time>2026-09-02T15:59:38.930Z</time>
      </trkpt>
      <trkpt lat="53.215943" lon="6.559993">
        <ele>5.241908</ele>
        <time>2026-09-02T15:59:41.931Z</time>
      </trkpt>
      <trkpt lat="53.215946" lon="6.559814">
        <ele>5.164357</ele>
        <time>2026-09-02T15:59:45.932Z</time>
      </trkpt>
      <trkpt lat="53.215846" lon="6.559790">
        <ele>5.091291</ele>
        <time>2026-09-02T15:59:51.945Z</time>
      </trkpt>
      <trkpt lat="53.215754" lon="6.559790">
        <ele>5.024753</ele>
        <time>2026-09-02T15:59:55.937Z</time>
      </trkpt>
      <trkpt lat="53.215651" lon="6.559774">
        <ele>4.949938</ele>
        <time>2026-09-02T16:00:01.946Z</time>
      </trkpt>
      <trkpt lat="53.215602" lon="6.559925">
        <ele>4.875557</ele>
        <time>2026-09-02T16:00:05.933Z</time>
      </trkpt>
      <trkpt lat="53.215565" lon="6.560063">
        <ele>4.810075</ele>
        <time>2026-09-02T16:00:08.945Z</time>
      </trkpt>
      <trkpt lat="53.215516" lon="6.560251">
        <ele>4.721278</ele>
        <time>2026-09-02T16:00:12.933Z</time>
      </trkpt>
      <trkpt lat="53.215472" lon="6.560404">
        <ele>4.647771</ele>
        <time>2026-09-02T16:00:15.933Z</time>
      </trkpt>
      <trkpt lat="53.215428" lon="6.560555">
        <ele>4.575044</ele>
        <time>2026-09-02T16:00:18.937Z</time>
      </trkpt>
      <trkpt lat="53.215384" lon="6.560695">
        <ele>4.583166</ele>
        <time>2026-09-02T16:00:21.930Z</time>
      </trkpt>
      <trkpt lat="53.215340" lon="6.560863">
        <ele>4.604347</ele>
        <time>2026-09-02T16:00:25.933Z</time>
      </trkpt>
      <trkpt lat="53.215299" lon="6.561038">
        <ele>4.626055</ele>
        <time>2026-09-02T16:00:29.945Z</time>
      </trkpt>
      <trkpt lat="53.215218" lon="6.561115">
        <ele>4.644035</ele>
        <time>2026-09-02T16:00:33.932Z</time>
      </trkpt>
      <trkpt lat="53.215118" lon="6.561020">
        <ele>4.666228</ele>
        <time>2026-09-02T16:00:37.932Z</time>
      </trkpt>
      <trkpt lat="53.215039" lon="6.560928">
        <ele>4.684808</ele>
        <time>2026-09-02T16:00:40.933Z</time>
      </trkpt>
      <trkpt lat="53.214957" lon="6.560850">
        <ele>4.703012</ele>
        <time>2026-09-02T16:00:43.932Z</time>
      </trkpt>
      <trkpt lat="53.214879" lon="6.560774">
        <ele>4.720433</ele>
        <time>2026-09-02T16:00:46.931Z</time>
      </trkpt>
      <trkpt lat="53.214798" lon="6.560694">
        <ele>4.738587</ele>
        <time>2026-09-02T16:00:49.931Z</time>
      </trkpt>
      <trkpt lat="53.214718" lon="6.560614">
        <ele>4.756575</ele>
        <time>2026-09-02T16:00:52.931Z</time>
      </trkpt>
      <trkpt lat="53.214609" lon="6.560601">
        <ele>4.777656</ele>
        <time>2026-09-02T16:00:56.931Z</time>
      </trkpt>
      <trkpt lat="53.214537" lon="6.560698">
        <ele>4.795501</ele>
        <time>2026-09-02T16:00:59.945Z</time>
      </trkpt>
      <trkpt lat="53.214455" lon="6.560832">
        <ele>4.817634</ele>
        <time>2026-09-02T16:01:02.932Z</time>
      </trkpt>
      <trkpt lat="53.214371" lon="6.560961">
        <ele>4.839648</ele>
        <time>2026-09-02T16:01:05.930Z</time>
      </trkpt>
      <trkpt lat="53.214295" lon="6.561097">
        <ele>4.861137</ele>
        <time>2026-09-02T16:01:08.930Z</time>
      </trkpt>
      <trkpt lat="53.214234" lon="6.561233">
        <ele>4.880766</ele>
        <time>2026-09-02T16:01:11.930Z</time>
      </trkpt>
      <trkpt lat="53.214184" lon="6.561366">
        <ele>4.898906</ele>
        <time>2026-09-02T16:01:14.932Z</time>
      </trkpt>
      <trkpt lat="53.214116" lon="6.561522">
        <ele>4.873004</ele>
        <time>2026-09-02T16:01:18.933Z</time>
      </trkpt>
      <trkpt lat="53.214063" lon="6.561652">
        <ele>4.769326</ele>
        <time>2026-09-02T16:01:21.934Z</time>
      </trkpt>
      <trkpt lat="53.214011" lon="6.561826">
        <ele>4.641126</ele>
        <time>2026-09-02T16:01:25.931Z</time>
      </trkpt>
      <trkpt lat="53.213961" lon="6.561960">
        <ele>4.537041</ele>
        <time>2026-09-02T16:01:28.932Z</time>
      </trkpt>
      <trkpt lat="53.213927" lon="6.562103">
        <ele>4.435609</ele>
        <time>2026-09-02T16:01:31.930Z</time>
      </trkpt>
      <trkpt lat="53.213883" lon="6.562273">
        <ele>4.313517</ele>
        <time>2026-09-02T16:01:35.930Z</time>
      </trkpt>
      <trkpt lat="53.213835" lon="6.562445">
        <ele>4.188418</ele>
        <time>2026-09-02T16:01:39.936Z</time>
      </trkpt>
      <trkpt lat="53.213737" lon="6.562462">
        <ele>4.079950</ele>
        <time>2026-09-02T16:01:43.935Z</time>
      </trkpt>
      <trkpt lat="53.213655" lon="6.562378">
        <ele>3.974044</ele>
        <time>2026-09-02T16:01:46.935Z</time>
      </trkpt>
      <trkpt lat="53.213623" lon="6.562212">
        <ele>3.859078</ele>
        <time>2026-09-02T16:01:49.934Z</time>
      </trkpt>
      <trkpt lat="53.213590" lon="6.562042">
        <ele>3.741264</ele>
        <time>2026-09-02T16:01:52.933Z</time>
      </trkpt>
      <trkpt lat="53.213547" lon="6.561904">
        <ele>3.638708</ele>
        <time>2026-09-02T16:01:55.934Z</time>
      </trkpt>
      <trkpt lat="53.213462" lon="6.561791">
        <ele>3.519100</ele>
        <time>2026-09-02T16:01:58.931Z</time>
      </trkpt>
      <trkpt lat="53.213358" lon="6.561709">
        <ele>3.392486</ele>
        <time>2026-09-02T16:02:01.930Z</time>
      </trkpt>
      <trkpt lat="53.213251" lon="6.561684">
        <ele>3.273543</ele>
        <time>2026-09-02T16:02:04.932Z</time>
      </trkpt>
      <trkpt lat="53.213156" lon="6.561682">
        <ele>3.168950</ele>
        <time>2026-09-02T16:02:07.931Z</time>
      </trkpt>
      <trkpt lat="53.213056" lon="6.561737">
        <ele>3.053043</ele>
        <time>2026-09-02T16:02:10.931Z</time>
      </trkpt>
      <trkpt lat="53.212967" lon="6.561848">
        <ele>2.942379</ele>
        <time>2026-09-02T16:02:13.945Z</time>
      </trkpt>
      <trkpt lat="53.212878" lon="6.561951">
        <ele>3.264298</ele>
        <time>2026-09-02T16:02:16.932Z</time>
      </trkpt>
      <trkpt lat="53.212772" lon="6.561918">
        <ele>3.584855</ele>
        <time>2026-09-02T16:02:19.933Z</time>
      </trkpt>
      <trkpt lat="53.212669" lon="6.561841">
        <ele>3.920348</ele>
        <time>2026-09-02T16:02:22.945Z</time>
      </trkpt>
      <trkpt lat="53.212567" lon="6.561766">
        <ele>4.251679</ele>
        <time>2026-09-02T16:02:25.936Z</time>
      </trkpt>
      <trkpt lat="53.212456" lon="6.561698">
        <ele>4.603177</ele>
        <time>2026-09-02T16:02:28.933Z</time>
      </trkpt>
      <trkpt lat="53.212357" lon="6.561631">
        <ele>4.920746</ele>
        <time>2026-09-02T16:02:31.933Z</time>
      </trkpt>
      <trkpt lat="53.212288" lon="6.561536">
        <ele>5.186610</ele>
        <time>2026-09-02T16:02:34.931Z</time>
      </trkpt>
      <trkpt lat="53.212193" lon="6.561434">
        <ele>5.522378</ele>
        <time>2026-09-02T16:02:37.932Z</time>
      </trkpt>
      <trkpt lat="53.212086" lon="6.561364">
        <ele>5.864019</ele>
        <time>2026-09-02T16:02:40.933Z</time>
      </trkpt>
      <trkpt lat="53.211984" lon="6.561299">
        <ele>6.188586</ele>
        <time>2026-09-02T16:02:43.945Z</time>
      </trkpt>
      <trkpt lat="53.211873" lon="6.561245">
        <ele>6.532297</ele>
        <time>2026-09-02T16:02:46.932Z</time>
      </trkpt>
      <trkpt lat="53.211768" lon="6.561200">
        <ele>6.854568</ele>
        <time>2026-09-02T16:02:49.945Z</time>
      </trkpt>
      <trkpt lat="53.211678" lon="6.561155">
        <ele>7.133866</ele>
        <time>2026-09-02T16:02:52.934Z</time>
      </trkpt>
      <trkpt lat="53.211577" lon="6.561111">
        <ele>7.444179</ele>
        <time>2026-09-02T16:02:55.933Z</time>
      </trkpt>
      <trkpt lat="53.211480" lon="6.561082">
        <ele>7.737136</ele>
        <time>2026-09-02T16:02:58.945Z</time>
      </trkpt>
      <trkpt lat="53.211384" lon="6.561056">
        <ele>8.026263</ele>
        <time>2026-09-02T16:03:01.929Z</time>
      </trkpt>
      <trkpt lat="53.211285" lon="6.561028">
        <ele>8.279127</ele>
        <time>2026-09-02T16:03:04.931Z</time>
      </trkpt>
      <trkpt lat="53.211187" lon="6.561025">
        <ele>8.266116</ele>
        <time>2026-09-02T16:03:07.930Z</time>
      </trkpt>
      <trkpt lat="53.211081" lon="6.561013">
        <ele>8.252013</ele>
        <time>2026-09-02T16:03:10.932Z</time>
      </trkpt>
      <trkpt lat="53.210976" lon="6.560993">
        <ele>8.237984</ele>
        <time>2026-09-02T16:03:13.945Z</time>
      </trkpt>
      <trkpt lat="53.210869" lon="6.560982">
        <ele>8.223754</ele>
        <time>2026-09-02T16:03:16.932Z</time>
      </trkpt>
      <trkpt lat="53.210767" lon="6.560966">
        <ele>8.210154</ele>
        <time>2026-09-02T16:03:19.933Z</time>
      </trkpt>
      <trkpt lat="53.210662" lon="6.560954">
        <ele>8.196184</ele>
        <time>2026-09-02T16:03:22.945Z</time>
      </trkpt>
      <trkpt lat="53.210539" lon="6.560949">
        <ele>8.179851</ele>
        <time>2026-09-02T16:03:25.931Z</time>
      </trkpt>
      <trkpt lat="53.210415" lon="6.560938">
        <ele>8.163368</ele>
        <time>2026-09-02T16:03:28.933Z</time>
      </trkpt>
      <trkpt lat="53.210288" lon="6.560917">
        <ele>8.146427</ele>
        <time>2026-09-02T16:03:31.931Z</time>
      </trkpt>
      <trkpt lat="53.210158" lon="6.560901">
        <ele>8.129123</ele>
        <time>2026-09-02T16:03:34.932Z</time>
      </trkpt>
      <trkpt lat="53.210064" lon="6.560882">
        <ele>8.116554</ele>
        <time>2026-09-02T16:03:36.931Z</time>
      </trkpt>
      <trkpt lat="53.209967" lon="6.560873">
        <ele>8.103659</ele>
        <time>2026-09-02T16:03:38.946Z</time>
      </trkpt>
      <trkpt lat="53.209872" lon="6.560860">
        <ele>8.091006</ele>
        <time>2026-09-02T16:03:40.945Z</time>
      </trkpt>
      <trkpt lat="53.209772" lon="6.560843">
        <ele>8.077663</ele>
        <time>2026-09-02T16:03:42.945Z</time>
      </trkpt>
      <trkpt lat="53.209674" lon="6.560839">
        <ele>8.064650</ele>
        <time>2026-09-02T16:03:44.934Z</time>
      </trkpt>
      <trkpt lat="53.209571" lon="6.560844">
        <ele>8.050972</ele>
        <time>2026-09-02T16:03:46.946Z</time>
      </trkpt>
      <trkpt lat="53.209467" lon="6.560863">
        <ele>7.956987</ele>
        <time>2026-09-02T16:03:48.933Z</time>
      </trkpt>
      <trkpt lat="53.209352" lon="6.560886">
        <ele>7.706408</ele>
        <time>2026-09-02T16:03:50.934Z</time>
      </trkpt>
      <trkpt lat="53.209241" lon="6.560910">
        <ele>7.464256</ele>
        <time>2026-09-02T16:03:52.933Z</time>
      </trkpt>
      <trkpt lat="53.209128" lon="6.560943">
        <ele>7.216071</ele>
        <time>2026-09-02T16:03:54.947Z</time>
      </trkpt>
      <trkpt lat="53.209022" lon="6.560982">
        <ele>6.981240</ele>
        <time>2026-09-02T16:03:56.945Z</time>
      </trkpt>
      <trkpt lat="53.208911" lon="6.561030">
        <ele>6.733170</ele>
        <time>2026-09-02T16:03:58.932Z</time>
      </trkpt>
      <trkpt lat="53.208800" lon="6.561086">
        <ele>6.482301</ele>
        <time>2026-09-02T16:04:00.932Z</time>
      </trkpt>
      <trkpt lat="53.208692" lon="6.561140">
        <ele>6.238393</ele>
        <time>2026-09-02T16:04:02.932Z</time>
      </trkpt>
      <trkpt lat="53.208592" lon="6.561198">
        <ele>6.009364</ele>
        <time>2026-09-02T16:04:04.931Z</time>
      </trkpt>
      <trkpt lat="53.208493" lon="6.561248">
        <ele>5.785595</ele>
        <time>2026-09-02T16:04:06.945Z</time>
      </trkpt>
      <trkpt lat="53.208402" lon="6.561304">
        <ele>5.575773</ele>
        <time>2026-09-02T16:04:08.931Z</time>
      </trkpt>
      <trkpt lat="53.208309" lon="6.561349">
        <ele>5.366290</ele>
        <time>2026-09-02T16:04:10.934Z</time>
      </trkpt>
      <trkpt lat="53.208222" lon="6.561394">
        <ele>5.169242</ele>
        <time>2026-09-02T16:04:12.929Z</time>
      </trkpt>
      <trkpt lat="53.208127" lon="6.561452">
        <ele>4.950403</ele>
        <time>2026-09-02T16:04:14.933Z</time>
      </trkpt>
      <trkpt lat="53.208027" lon="6.561502">
        <ele>4.724562</ele>
        <time>2026-09-02T16:04:16.938Z</time>
      </trkpt>
      <trkpt lat="53.207926" lon="6.561555">
        <ele>4.495513</ele>
        <time>2026-09-02T16:04:18.948Z</time>
      </trkpt>
      <trkpt lat="53.207823" lon="6.561600">
        <ele>4.265171</ele>
        <time>2026-09-02T16:04:20.945Z</time>
      </trkpt>
      <trkpt lat="53.207702" lon="6.561657">
        <ele>4.301683</ele>
        <time>2026-09-02T16:04:23.935Z</time>
      </trkpt>
      <trkpt lat="53.207610" lon="6.561691">
        <ele>4.496356</ele>
        <time>2026-09-02T16:04:26.933Z</time>
      </trkpt>
      <trkpt lat="53.207533" lon="6.561584">
        <ele>4.703327</ele>
        <time>2026-09-02T16:04:30.937Z</time>
      </trkpt>
      <trkpt lat="53.207499" lon="6.561421">
        <ele>4.916900</ele>
        <time>2026-09-02T16:04:33.939Z</time>
      </trkpt>
      <trkpt lat="53.207467" lon="6.561239">
        <ele>5.151606</ele>
        <time>2026-09-02T16:04:36.953Z</time>
      </trkpt>
      <trkpt lat="53.207526" lon="6.561111">
        <ele>5.351465</ele>
        <time>2026-09-02T16:04:39.938Z</time>
      </trkpt>
      <trkpt lat="53.207631" lon="6.561057">
        <ele>5.578453</ele>
        <time>2026-09-02T16:04:42.937Z</time>
      </trkpt>
      <trkpt lat="53.207734" lon="6.560996">
        <ele>5.804242</ele>
        <time>2026-09-02T16:04:45.931Z</time>
      </trkpt>
      <trkpt lat="53.207847" lon="6.560936">
        <ele>6.049221</ele>
        <time>2026-09-02T16:04:48.935Z</time>
      </trkpt>
      <trkpt lat="53.207946" lon="6.560841">
        <ele>6.285129</ele>
        <time>2026-09-02T16:04:51.934Z</time>
      </trkpt>
      <trkpt lat="53.207935" lon="6.560659">
        <ele>6.511472</ele>
        <time>2026-09-02T16:04:54.937Z</time>
      </trkpt>
      <trkpt lat="53.207901" lon="6.560470">
        <ele>6.755654</ele>
        <time>2026-09-02T16:04:57.945Z</time>
      </trkpt>
      <trkpt lat="53.207875" lon="6.560277">
        <ele>7.000432</ele>
        <time>2026-09-02T16:05:00.946Z</time>
      </trkpt>
      <trkpt lat="53.207848" lon="6.560098">
        <ele>7.228836</ele>
        <time>2026-09-02T16:05:03.932Z</time>
      </trkpt>
      <trkpt lat="53.207818" lon="6.559914">
        <ele>7.464796</ele>
        <time>2026-09-02T16:05:06.932Z</time>
      </trkpt>
      <trkpt lat="53.207800" lon="6.559733">
        <ele>7.691825</ele>
        <time>2026-09-02T16:05:09.933Z</time>
      </trkpt>
      <trkpt lat="53.207767" lon="6.559538">
        <ele>7.806467</ele>
        <time>2026-09-02T16:05:12.932Z</time>
      </trkpt>
      <trkpt lat="53.207748" lon="6.559349">
        <ele>7.616521</ele>
        <time>2026-09-02T16:05:15.934Z</time>
      </trkpt>
      <trkpt lat="53.207730" lon="6.559188">
        <ele>7.454190</ele>
        <time>2026-09-02T16:05:18.933Z</time>
      </trkpt>
      <trkpt lat="53.207659" lon="6.559032">
        <ele>7.259993</ele>
        <time>2026-09-02T16:05:23.930Z</time>
      </trkpt>
      <trkpt lat="53.207531" lon="6.559004">
        <ele>7.046355</ele>
        <time>2026-09-02T16:05:26.938Z</time>
      </trkpt>
      <trkpt lat="53.207411" lon="6.559030">
        <ele>6.846102</ele>
        <time>2026-09-02T16:05:29.939Z</time>
      </trkpt>
      <trkpt lat="53.207312" lon="6.559066">
        <ele>6.678427</ele>
        <time>2026-09-02T16:05:32.931Z</time>
      </trkpt>
      <trkpt lat="53.207204" lon="6.559117">
        <ele>6.492687</ele>
        <time>2026-09-02T16:05:35.934Z</time>
      </trkpt>
      <trkpt lat="53.207102" lon="6.559159">
        <ele>6.318830</ele>
        <time>2026-09-02T16:05:38.938Z</time>
      </trkpt>
      <trkpt lat="53.207007" lon="6.559221">
        <ele>6.150031</ele>
        <time>2026-09-02T16:05:42.946Z</time>
      </trkpt>
      <trkpt lat="53.206959" lon="6.559370">
        <ele>5.982341</ele>
        <time>2026-09-02T16:05:46.933Z</time>
      </trkpt>
      <trkpt lat="53.207006" lon="6.559535">
        <ele>5.801245</ele>
        <time>2026-09-02T16:05:49.945Z</time>
      </trkpt>
      <trkpt lat="53.207051" lon="6.559691">
        <ele>5.629625</ele>
        <time>2026-09-02T16:05:52.931Z</time>
      </trkpt>
      <trkpt lat="53.207091" lon="6.559861">
        <ele>5.448591</ele>
        <time>2026-09-02T16:05:55.938Z</time>
      </trkpt>
      <trkpt lat="53.207134" lon="6.560043">
        <ele>5.254671</ele>
        <time>2026-09-02T16:05:58.937Z</time>
      </trkpt>
      <trkpt lat="53.207098" lon="6.560188">
        <ele>5.099094</ele>
        <time>2026-09-02T16:06:01.940Z</time>
      </trkpt>
      <trkpt lat="53.206992" lon="6.560260">
        <ele>4.909715</ele>
        <time>2026-09-02T16:06:04.941Z</time>
      </trkpt>
      <trkpt lat="53.206873" lon="6.560342">
        <ele>4.778696</ele>
        <time>2026-09-02T16:06:07.940Z</time>
      </trkpt>
      <trkpt lat="53.206752" lon="6.560393">
        <ele>4.659604</ele>
        <time>2026-09-02T16:06:10.934Z</time>
      </trkpt>
      <trkpt lat="53.206635" lon="6.560438">
        <ele>4.545027</ele>
        <time>2026-09-02T16:06:13.934Z</time>
      </trkpt>
      <trkpt lat="53.206526" lon="6.560488">
        <ele>4.437155</ele>
        <time>2026-09-02T16:06:16.938Z</time>
      </trkpt>
      <trkpt lat="53.206411" lon="6.560534">
        <ele>4.324306</ele>
        <time>2026-09-02T16:06:19.946Z</time>
      </trkpt>
      <trkpt lat="53.206312" lon="6.560577">
        <ele>4.226687</ele>
        <time>2026-09-02T16:06:22.938Z</time>
      </trkpt>
      <trkpt lat="53.206215" lon="6.560628">
        <ele>4.129639</ele>
        <time>2026-09-02T16:06:25.938Z</time>
      </trkpt>
      <trkpt lat="53.206112" lon="6.560679">
        <ele>4.027116</ele>
        <time>2026-09-02T16:06:28.938Z</time>
      </trkpt>
      <trkpt lat="53.205998" lon="6.560735">
        <ele>3.913715</ele>
        <time>2026-09-02T16:06:31.939Z</time>
      </trkpt>
      <trkpt lat="53.205892" lon="6.560789">
        <ele>3.807957</ele>
        <time>2026-09-02T16:06:34.934Z</time>
      </trkpt>
      <trkpt lat="53.205785" lon="6.560837">
        <ele>3.702226</ele>
        <time>2026-09-02T16:06:37.939Z</time>
      </trkpt>
      <trkpt lat="53.205679" lon="6.560889">
        <ele>3.596795</ele>
        <time>2026-09-02T16:06:40.940Z</time>
      </trkpt>
      <trkpt lat="53.205578" lon="6.560943">
        <ele>3.495590</ele>
        <time>2026-09-02T16:06:43.940Z</time>
      </trkpt>
      <trkpt lat="53.205486" lon="6.560989">
        <ele>3.403943</ele>
        <time>2026-09-02T16:06:46.939Z</time>
      </trkpt>
      <trkpt lat="53.205384" lon="6.561008">
        <ele>3.306001</ele>
        <time>2026-09-02T16:06:50.931Z</time>
      </trkpt>
      <trkpt lat="53.205325" lon="6.560893">
        <ele>3.219452</ele>
        <time>2026-09-02T16:06:55.938Z</time>
      </trkpt>
      <trkpt lat="53.205307" lon="6.560742">
        <ele>3.158823</ele>
        <time>2026-09-02T16:06:58.939Z</time>
      </trkpt>
      <trkpt lat="53.205271" lon="6.560597">
        <ele>3.126833</ele>
        <time>2026-09-02T16:07:01.938Z</time>
      </trkpt>
      <trkpt lat="53.205296" lon="6.560427">
        <ele>3.091157</ele>
        <time>2026-09-02T16:07:05.936Z</time>
      </trkpt>
      <trkpt lat="53.205311" lon="6.560274">
        <ele>3.059560</ele>
        <time>2026-09-02T16:07:09.938Z</time>
      </trkpt>
      <trkpt lat="53.205207" lon="6.560220">
        <ele>3.022500</ele>
        <time>2026-09-02T16:07:14.938Z</time>
      </trkpt>
      <trkpt lat="53.205106" lon="6.560252">
        <ele>2.987520</ele>
        <time>2026-09-02T16:07:17.939Z</time>
      </trkpt>
      <trkpt lat="53.204995" lon="6.560284">
        <ele>2.949191</ele>
        <time>2026-09-02T16:07:20.945Z</time>
      </trkpt>
      <trkpt lat="53.204881" lon="6.560314">
        <ele>2.909921</ele>
        <time>2026-09-02T16:07:23.946Z</time>
      </trkpt>
      <trkpt lat="53.204763" lon="6.560350">
        <ele>2.869105</ele>
        <time>2026-09-02T16:07:26.934Z</time>
      </trkpt>
      <trkpt lat="53.204638" lon="6.560394">
        <ele>2.825636</ele>
        <time>2026-09-02T16:07:29.934Z</time>
      </trkpt>
      <trkpt lat="53.204526" lon="6.560427">
        <ele>2.786937</ele>
        <time>2026-09-02T16:07:32.945Z</time>
      </trkpt>
      <trkpt lat="53.204420" lon="6.560450">
        <ele>2.750565</ele>
        <time>2026-09-02T16:07:35.931Z</time>
      </trkpt>
      <trkpt lat="53.204308" lon="6.560498">
        <ele>2.711219</ele>
        <time>2026-09-02T16:07:39.939Z</time>
      </trkpt>
      <trkpt lat="53.204209" lon="6.560550">
        <ele>2.675905</ele>
        <time>2026-09-02T16:07:42.935Z</time>
      </trkpt>
      <trkpt lat="53.204100" lon="6.560615">
        <ele>2.636521</ele>
        <time>2026-09-02T16:07:45.933Z</time>
      </trkpt>
      <trkpt lat="53.203995" lon="6.560679">
        <ele>2.598486</ele>
        <time>2026-09-02T16:07:48.937Z</time>
      </trkpt>
      <trkpt lat="53.203883" lon="6.560747">
        <ele>2.570308</ele>
        <time>2026-09-02T16:07:51.932Z</time>
      </trkpt>
      <trkpt lat="53.203763" lon="6.560813">
        <ele>2.659203</ele>
        <time>2026-09-02T16:07:54.938Z</time>
      </trkpt>
      <trkpt lat="53.203647" lon="6.560879">
        <ele>2.745429</ele>
        <time>2026-09-02T16:07:57.934Z</time>
      </trkpt>
      <trkpt lat="53.203542" lon="6.560939">
        <ele>2.823513</ele>
        <time>2026-09-02T16:08:00.937Z</time>
      </trkpt>
      <trkpt lat="53.203445" lon="6.560995">
        <ele>2.895727</ele>
        <time>2026-09-02T16:08:03.931Z</time>
      </trkpt>
      <trkpt lat="53.203359" lon="6.561047">
        <ele>2.960082</ele>
        <time>2026-09-02T16:08:06.931Z</time>
      </trkpt>
      <trkpt lat="53.203269" lon="6.561102">
        <ele>3.027514</ele>
        <time>2026-09-02T16:08:09.931Z</time>
      </trkpt>
      <trkpt lat="53.203172" lon="6.561164">
        <ele>3.100593</ele>
        <time>2026-09-02T16:08:12.934Z</time>
      </trkpt>
      <trkpt lat="53.203080" lon="6.561212">
        <ele>3.168411</ele>
        <time>2026-09-02T16:08:15.935Z</time>
      </trkpt>
      <trkpt lat="53.202980" lon="6.561236">
        <ele>3.239493</ele>
        <time>2026-09-02T16:08:18.945Z</time>
      </trkpt>
      <trkpt lat="53.202927" lon="6.561086">
        <ele>3.312888</ele>
        <time>2026-09-02T16:08:21.935Z</time>
      </trkpt>
      <trkpt lat="53.202897" lon="6.560903">
        <ele>3.392847</ele>
        <time>2026-09-02T16:08:24.946Z</time>
      </trkpt>
      <trkpt lat="53.202862" lon="6.560716">
        <ele>3.475414</ele>
        <time>2026-09-02T16:08:27.937Z</time>
      </trkpt>
      <trkpt lat="53.202827" lon="6.560533">
        <ele>3.556374</ele>
        <time>2026-09-02T16:08:30.938Z</time>
      </trkpt>
      <trkpt lat="53.202797" lon="6.560355">
        <ele>3.634303</ele>
        <time>2026-09-02T16:08:33.937Z</time>
      </trkpt>
      <trkpt lat="53.202776" lon="6.560177">
        <ele>3.710761</ele>
        <time>2026-09-02T16:08:36.937Z</time>
      </trkpt>
      <trkpt lat="53.202768" lon="6.559994">
        <ele>3.788090</ele>
        <time>2026-09-02T16:08:39.940Z</time>
      </trkpt>
      <trkpt lat="53.202793" lon="6.559821">
        <ele>3.829469</ele>
        <time>2026-09-02T16:08:42.938Z</time>
      </trkpt>
      <trkpt lat="53.202813" lon="6.559643">
        <ele>3.833739</ele>
        <time>2026-09-02T16:08:45.939Z</time>
      </trkpt>
      <trkpt lat="53.202832" lon="6.559467">
        <ele>3.837956</ele>
        <time>2026-09-02T16:08:48.938Z</time>
      </trkpt>
      <trkpt lat="53.202811" lon="6.559296">
        <ele>3.842072</ele>
        <time>2026-09-02T16:08:52.938Z</time>
      </trkpt>
      <trkpt lat="53.202766" lon="6.559132">
        <ele>3.846325</ele>
        <time>2026-09-02T16:08:56.938Z</time>
      </trkpt>
      <trkpt lat="53.202725" lon="6.558991">
        <ele>3.850021</ele>
        <time>2026-09-02T16:08:59.939Z</time>
      </trkpt>
      <trkpt lat="53.202636" lon="6.558952">
        <ele>3.853643</ele>
        <time>2026-09-02T16:09:02.939Z</time>
      </trkpt>
      <trkpt lat="53.202546" lon="6.558978">
        <ele>3.857239</ele>
        <time>2026-09-02T16:09:05.946Z</time>
      </trkpt>
      <trkpt lat="53.202486" lon="6.558857">
        <ele>3.860942</ele>
        <time>2026-09-02T16:09:09.939Z</time>
      </trkpt>
      <trkpt lat="53.202474" lon="6.558686">
        <ele>3.865002</ele>
        <time>2026-09-02T16:09:12.938Z</time>
      </trkpt>
      <trkpt lat="53.202441" lon="6.558517">
        <ele>3.869193</ele>
        <time>2026-09-02T16:09:15.933Z</time>
      </trkpt>
      <trkpt lat="53.202404" lon="6.558338">
        <ele>3.873658</ele>
        <time>2026-09-02T16:09:18.933Z</time>
      </trkpt>
      <trkpt lat="53.202368" lon="6.558161">
        <ele>3.878066</ele>
        <time>2026-09-02T16:09:21.940Z</time>
      </trkpt>
      <trkpt lat="53.202336" lon="6.557995">
        <ele>3.882178</ele>
        <time>2026-09-02T16:09:24.938Z</time>
      </trkpt>
      <trkpt lat="53.202323" lon="6.557829">
        <ele>3.886125</ele>
        <time>2026-09-02T16:09:27.938Z</time>
      </trkpt>
      <trkpt lat="53.202331" lon="6.557632">
        <ele>3.890781</ele>
        <time>2026-09-02T16:09:30.933Z</time>
      </trkpt>
      <trkpt lat="53.202325" lon="6.557448">
        <ele>3.895126</ele>
        <time>2026-09-02T16:09:33.933Z</time>
      </trkpt>
      <trkpt lat="53.202288" lon="6.557281">
        <ele>3.898280</ele>
        <time>2026-09-02T16:09:36.934Z</time>
      </trkpt>
      <trkpt lat="53.202240" lon="6.557103">
        <ele>3.898280</ele>
        <time>2026-09-02T16:09:39.933Z</time>
      </trkpt>
      <trkpt lat="53.202200" lon="6.556918">
        <ele>3.898280</ele>
        <time>2026-09-02T16:09:42.933Z</time>
      </trkpt>
      <trkpt lat="53.202159" lon="6.556724">
        <ele>3.898280</ele>
        <time>2026-09-02T16:09:45.934Z</time>
      </trkpt>
      <trkpt lat="53.202115" lon="6.556531">
        <ele>3.898280</ele>
        <time>2026-09-02T16:09:48.945Z</time>
      </trkpt>
      <trkpt lat="53.202082" lon="6.556346">
        <ele>3.898280</ele>
        <time>2026-09-02T16:09:51.945Z</time>
      </trkpt>
      <trkpt lat="53.202049" lon="6.556154">
        <ele>3.898280</ele>
        <time>2026-09-02T16:09:54.936Z</time>
      </trkpt>
      <trkpt lat="53.202006" lon="6.555979">
        <ele>3.898280</ele>
        <time>2026-09-02T16:09:57.945Z</time>
      </trkpt>
      <trkpt lat="53.201959" lon="6.555805">
        <ele>3.898280</ele>
        <time>2026-09-02T16:10:00.946Z</time>
      </trkpt>
      <trkpt lat="53.201922" lon="6.555625">
        <ele>3.898280</ele>
        <time>2026-09-02T16:10:03.934Z</time>
      </trkpt>
      <trkpt lat="53.201883" lon="6.555447">
        <ele>3.898280</ele>
        <time>2026-09-02T16:10:06.945Z</time>
      </trkpt>
      <trkpt lat="53.201843" lon="6.555268">
        <ele>3.898280</ele>
        <time>2026-09-02T16:10:09.938Z</time>
      </trkpt>
      <trkpt lat="53.201796" lon="6.555084">
        <ele>3.898280</ele>
        <time>2026-09-02T16:10:12.940Z</time>
      </trkpt>
      <trkpt lat="53.201744" lon="6.554924">
        <ele>3.898280</ele>
        <time>2026-09-02T16:10:15.943Z</time>
      </trkpt>
      <trkpt lat="53.201727" lon="6.554752">
        <ele>3.898280</ele>
        <time>2026-09-02T16:10:19.933Z</time>
      </trkpt>
      <trkpt lat="53.201811" lon="6.554672">
        <ele>3.898280</ele>
        <time>2026-09-02T16:10:23.933Z</time>
      </trkpt>
    </trkseg>
  </trk>
</gpx>